<?xml version="1.0" encoding="UTF-8" standalone="no" ?>
<gpx xmlns="http://www.topografix.com/GPX/1/1" xmlns:xsi="http://www.w3.org/2001/XMLSchema-instance" xsi:schemaLocation="http://www.topografix.com/GPX/1/1 http://www.topografix.com/GPX/1/1/gpx.xsd" version="1.1" creator="VisuGPX - https://www.visugpx.com">
  <metadata>
    <name>50 km Rando cyclo  du débarquement</name>
  </metadata>
  <trk>
    <name><![CDATA[50 km Rando du débarquement]]></name>
    <trkseg>
      <trkpt lat="49.31676" lon="-0.35748">
        <ele>13.18715713516</ele>
        <time>2022-02-04T09:11:41.000Z</time>
      </trkpt>
      <trkpt lat="49.31676" lon="-0.35748">
        <ele>13.22999838777</ele>
        <time>2022-02-04T09:11:41.000Z</time>
      </trkpt>
      <trkpt lat="49.31668" lon="-0.35721">
        <ele>13.27518333847</ele>
        <time>2022-02-04T09:11:41.003Z</time>
      </trkpt>
      <trkpt lat="49.31668" lon="-0.35721">
        <ele>13.32221509377</ele>
        <time>2022-02-04T09:11:41.006Z</time>
      </trkpt>
      <trkpt lat="49.31667" lon="-0.35707">
        <ele>13.4371665348</ele>
        <time>2022-02-04T09:11:41.011Z</time>
      </trkpt>
      <trkpt lat="49.31667" lon="-0.35707">
        <ele>13.51537168457</ele>
        <time>2022-02-04T09:11:41.016Z</time>
      </trkpt>
      <trkpt lat="49.31665" lon="-0.35708">
        <ele>13.57577050322</ele>
        <time>2022-02-04T09:11:41.021Z</time>
      </trkpt>
      <trkpt lat="49.31662" lon="-0.35706">
        <ele>13.63866893396</ele>
        <time>2022-02-04T09:11:41.026Z</time>
      </trkpt>
      <trkpt lat="49.31662" lon="-0.35702">
        <ele>13.70157326383</ele>
        <time>2022-02-04T09:11:41.032Z</time>
      </trkpt>
      <trkpt lat="49.31662" lon="-0.35702">
        <ele>13.74571379193</ele>
        <time>2022-02-04T09:11:41.038Z</time>
      </trkpt>
      <trkpt lat="49.31664" lon="-0.35698">
        <ele>13.79841036325</ele>
        <time>2022-02-04T09:11:41.044Z</time>
      </trkpt>
      <trkpt lat="49.31646" lon="-0.35619">
        <ele>13.72299489252</ele>
        <time>2022-02-04T09:11:41.059Z</time>
      </trkpt>
      <trkpt lat="49.31646" lon="-0.35619">
        <ele>13.70157951632</ele>
        <time>2022-02-04T09:11:41.074Z</time>
      </trkpt>
      <trkpt lat="49.31602" lon="-0.35407">
        <ele>13.71755822144</ele>
        <time>2022-02-04T09:11:41.112Z</time>
      </trkpt>
      <trkpt lat="49.31599" lon="-0.35376">
        <ele>13.76186558345</ele>
        <time>2022-02-04T09:11:41.154Z</time>
      </trkpt>
      <trkpt lat="49.31599" lon="-0.3535">
        <ele>13.81961328196</ele>
        <time>2022-02-04T09:11:41.198Z</time>
      </trkpt>
      <trkpt lat="49.31599" lon="-0.3535">
        <ele>13.83920489466</ele>
        <time>2022-02-04T09:11:41.242Z</time>
      </trkpt>
      <trkpt lat="49.31599" lon="-0.35342">
        <ele>13.84419565682</ele>
        <time>2022-02-04T09:11:41.287Z</time>
      </trkpt>
      <trkpt lat="49.31599" lon="-0.35342">
        <ele>13.83354494008</ele>
        <time>2022-02-04T09:11:41.332Z</time>
      </trkpt>
      <trkpt lat="49.31603" lon="-0.35316">
        <ele>13.80695371498</ele>
        <time>2022-02-04T09:11:41.380Z</time>
      </trkpt>
      <trkpt lat="49.31634" lon="-0.35174">
        <ele>13.72233236253</ele>
        <time>2022-02-04T09:11:41.444Z</time>
      </trkpt>
      <trkpt lat="49.31651" lon="-0.35099">
        <ele>13.6330921824</ele>
        <time>2022-02-04T09:11:41.516Z</time>
      </trkpt>
      <trkpt lat="49.31651" lon="-0.35099">
        <ele>13.5462622313</ele>
        <time>2022-02-04T09:11:41.588Z</time>
      </trkpt>
      <trkpt lat="49.31675" lon="-0.34994">
        <ele>13.4162086015</ele>
        <time>2022-02-04T09:11:41.672Z</time>
      </trkpt>
      <trkpt lat="49.31675" lon="-0.34994">
        <ele>13.30427940185</ele>
        <time>2022-02-04T09:11:41.756Z</time>
      </trkpt>
      <trkpt lat="49.31684" lon="-0.34976">
        <ele>13.18866421717</ele>
        <time>2022-02-04T09:11:41.842Z</time>
      </trkpt>
      <trkpt lat="49.31688" lon="-0.34964">
        <ele>13.05185322191</ele>
        <time>2022-02-04T09:11:41.930Z</time>
      </trkpt>
      <trkpt lat="49.31683" lon="-0.34955">
        <ele>12.88116017155</ele>
        <time>2022-02-04T09:11:42.019Z</time>
      </trkpt>
      <trkpt lat="49.31683" lon="-0.34947">
        <ele>12.71821749768</ele>
        <time>2022-02-04T09:11:42.109Z</time>
      </trkpt>
      <trkpt lat="49.31689" lon="-0.3494">
        <ele>12.57184933083</ele>
        <time>2022-02-04T09:11:42.200Z</time>
      </trkpt>
      <trkpt lat="49.31687" lon="-0.34919">
        <ele>12.42933473306</ele>
        <time>2022-02-04T09:11:42.293Z</time>
      </trkpt>
      <trkpt lat="49.31664" lon="-0.3487">
        <ele>12.20413971248</ele>
        <time>2022-02-04T09:11:42.392Z</time>
      </trkpt>
      <trkpt lat="49.31664" lon="-0.3487">
        <ele>12.04438829568</ele>
        <time>2022-02-04T09:11:42.491Z</time>
      </trkpt>
      <trkpt lat="49.31623" lon="-0.34781">
        <ele>11.91964647111</ele>
        <time>2022-02-04T09:11:42.602Z</time>
      </trkpt>
      <trkpt lat="49.31565" lon="-0.34653">
        <ele>11.90447608255</ele>
        <time>2022-02-04T09:11:42.729Z</time>
      </trkpt>
      <trkpt lat="49.31557" lon="-0.34633">
        <ele>11.77721793339</ele>
        <time>2022-02-04T09:11:42.858Z</time>
      </trkpt>
      <trkpt lat="49.31549" lon="-0.34618">
        <ele>11.59672436332</ele>
        <time>2022-02-04T09:11:42.989Z</time>
      </trkpt>
      <trkpt lat="49.31544" lon="-0.34607">
        <ele>11.41385718333</ele>
        <time>2022-02-04T09:11:43.122Z</time>
      </trkpt>
      <trkpt lat="49.31508" lon="-0.34528">
        <ele>11.38751511309</ele>
        <time>2022-02-04T09:11:43.265Z</time>
      </trkpt>
      <trkpt lat="49.31454" lon="-0.34405">
        <ele>11.00966085763</ele>
        <time>2022-02-04T09:11:43.423Z</time>
      </trkpt>
      <trkpt lat="49.31404" lon="-0.34292">
        <ele>10.64344242661</ele>
        <time>2022-02-04T09:11:43.596Z</time>
      </trkpt>
      <trkpt lat="49.31408" lon="-0.34283">
        <ele>10.39974444616</ele>
        <time>2022-02-04T09:11:43.770Z</time>
      </trkpt>
      <trkpt lat="49.31304" lon="-0.34029">
        <ele>10.384879624</ele>
        <time>2022-02-04T09:11:43.975Z</time>
      </trkpt>
      <trkpt lat="49.31304" lon="-0.34029">
        <ele>10.18567528519</ele>
        <time>2022-02-04T09:11:44.180Z</time>
      </trkpt>
      <trkpt lat="49.31095" lon="-0.33522">
        <ele>9.45344170939</ele>
        <time>2022-02-04T09:11:44.448Z</time>
      </trkpt>
      <trkpt lat="49.30899" lon="-0.33048">
        <ele>9.7354100706</ele>
        <time>2022-02-04T09:11:44.774Z</time>
      </trkpt>
      <trkpt lat="49.30889" lon="-0.33024">
        <ele>9.52498317459</ele>
        <time>2022-02-04T09:11:45.103Z</time>
      </trkpt>
      <trkpt lat="49.30754" lon="-0.32751">
        <ele>9.21983556243</ele>
        <time>2022-02-04T09:11:45.468Z</time>
      </trkpt>
      <trkpt lat="49.30621" lon="-0.32487">
        <ele>8.81773297884</ele>
        <time>2022-02-04T09:11:45.868Z</time>
      </trkpt>
      <trkpt lat="49.30608" lon="-0.32482">
        <ele>8.58852996909</ele>
        <time>2022-02-04T09:11:46.270Z</time>
      </trkpt>
      <trkpt lat="49.30591" lon="-0.3245">
        <ele>8.41122849373</ele>
        <time>2022-02-04T09:11:46.677Z</time>
      </trkpt>
      <trkpt lat="49.30585" lon="-0.3243">
        <ele>8.22591582913</ele>
        <time>2022-02-04T09:11:47.086Z</time>
      </trkpt>
      <trkpt lat="49.30589" lon="-0.3241">
        <ele>8.0011981501</ele>
        <time>2022-02-04T09:11:47.497Z</time>
      </trkpt>
      <trkpt lat="49.30587" lon="-0.32376">
        <ele>7.90232186027</ele>
        <time>2022-02-04T09:11:47.912Z</time>
      </trkpt>
      <trkpt lat="49.30596" lon="-0.32359">
        <ele>7.78153130709</ele>
        <time>2022-02-04T09:11:48.329Z</time>
      </trkpt>
      <trkpt lat="49.30594" lon="-0.32353">
        <ele>7.68312580078</ele>
        <time>2022-02-04T09:11:48.747Z</time>
      </trkpt>
      <trkpt lat="49.30588" lon="-0.32361">
        <ele>7.57786403934</ele>
        <time>2022-02-04T09:11:49.166Z</time>
      </trkpt>
      <trkpt lat="49.30583" lon="-0.32382">
        <ele>7.45836531019</ele>
        <time>2022-02-04T09:11:49.587Z</time>
      </trkpt>
      <trkpt lat="49.30584" lon="-0.32398">
        <ele>7.35040705308</ele>
        <time>2022-02-04T09:11:50.010Z</time>
      </trkpt>
      <trkpt lat="49.30585" lon="-0.32406">
        <ele>7.28441513185</ele>
        <time>2022-02-04T09:11:50.434Z</time>
      </trkpt>
      <trkpt lat="49.30583" lon="-0.32416">
        <ele>7.27491535331</ele>
        <time>2022-02-04T09:11:50.859Z</time>
      </trkpt>
      <trkpt lat="49.30577" lon="-0.32424">
        <ele>7.30406159054</ele>
        <time>2022-02-04T09:11:51.285Z</time>
      </trkpt>
      <trkpt lat="49.30576" lon="-0.32424">
        <ele>7.34883721635</ele>
        <time>2022-02-04T09:11:51.712Z</time>
      </trkpt>
      <trkpt lat="49.30576" lon="-0.32424">
        <ele>7.42552292938</ele>
        <time>2022-02-04T09:11:52.139Z</time>
      </trkpt>
      <trkpt lat="49.30571" lon="-0.32426">
        <ele>7.5409723698</ele>
        <time>2022-02-04T09:11:52.566Z</time>
      </trkpt>
      <trkpt lat="49.30566" lon="-0.32425">
        <ele>7.6860697849</ele>
        <time>2022-02-04T09:11:52.994Z</time>
      </trkpt>
      <trkpt lat="49.30549" lon="-0.32433">
        <ele>7.90921018484</ele>
        <time>2022-02-04T09:11:53.425Z</time>
      </trkpt>
      <trkpt lat="49.30542" lon="-0.32444">
        <ele>8.14295376407</ele>
        <time>2022-02-04T09:11:53.858Z</time>
      </trkpt>
      <trkpt lat="49.30528" lon="-0.32453">
        <ele>8.42128334508</ele>
        <time>2022-02-04T09:11:54.293Z</time>
      </trkpt>
      <trkpt lat="49.30528" lon="-0.32453">
        <ele>8.72667685009</ele>
        <time>2022-02-04T09:11:54.728Z</time>
      </trkpt>
      <trkpt lat="49.30514" lon="-0.32458">
        <ele>9.07161084482</ele>
        <time>2022-02-04T09:11:55.165Z</time>
      </trkpt>
      <trkpt lat="49.30507" lon="-0.32464">
        <ele>9.44054034067</ele>
        <time>2022-02-04T09:11:55.604Z</time>
      </trkpt>
      <trkpt lat="49.30449" lon="-0.32542">
        <ele>9.93846049194</ele>
        <time>2022-02-04T09:11:56.055Z</time>
      </trkpt>
      <trkpt lat="49.30389" lon="-0.32623">
        <ele>10.38799966454</ele>
        <time>2022-02-04T09:11:56.519Z</time>
      </trkpt>
      <trkpt lat="49.30344" lon="-0.32685">
        <ele>11.03667570398</ele>
        <time>2022-02-04T09:11:56.992Z</time>
      </trkpt>
      <trkpt lat="49.30344" lon="-0.32685">
        <ele>11.57884904201</ele>
        <time>2022-02-04T09:11:57.465Z</time>
      </trkpt>
      <trkpt lat="49.30296" lon="-0.3275">
        <ele>12.19820471683</ele>
        <time>2022-02-04T09:11:57.949Z</time>
      </trkpt>
      <trkpt lat="49.3029" lon="-0.32757">
        <ele>12.79720978473</ele>
        <time>2022-02-04T09:11:58.434Z</time>
      </trkpt>
      <trkpt lat="49.30233" lon="-0.32836">
        <ele>13.41885047264</ele>
        <time>2022-02-04T09:11:58.931Z</time>
      </trkpt>
      <trkpt lat="49.30169" lon="-0.32927">
        <ele>14.10615425182</ele>
        <time>2022-02-04T09:11:59.442Z</time>
      </trkpt>
      <trkpt lat="49.30169" lon="-0.32927">
        <ele>14.76707733883</ele>
        <time>2022-02-04T09:11:59.953Z</time>
      </trkpt>
      <trkpt lat="49.30143" lon="-0.32964">
        <ele>15.50353079674</ele>
        <time>2022-02-04T09:12:00.470Z</time>
      </trkpt>
      <trkpt lat="49.30136" lon="-0.32973">
        <ele>16.2168678929</ele>
        <time>2022-02-04T09:12:00.988Z</time>
      </trkpt>
      <trkpt lat="49.30136" lon="-0.32973">
        <ele>16.90750560348</ele>
        <time>2022-02-04T09:12:01.506Z</time>
      </trkpt>
      <trkpt lat="49.3009" lon="-0.33035">
        <ele>17.74008367749</ele>
        <time>2022-02-04T09:12:02.034Z</time>
      </trkpt>
      <trkpt lat="49.30019" lon="-0.33131">
        <ele>18.47178522078</ele>
        <time>2022-02-04T09:12:02.577Z</time>
      </trkpt>
      <trkpt lat="49.30019" lon="-0.33131">
        <ele>19.14673731492</ele>
        <time>2022-02-04T09:12:03.120Z</time>
      </trkpt>
      <trkpt lat="49.2943" lon="-0.3393">
        <ele>19.99315709405</ele>
        <time>2022-02-04T09:12:03.789Z</time>
      </trkpt>
      <trkpt lat="49.2943" lon="-0.3393">
        <ele>20.62762784284</ele>
        <time>2022-02-04T09:12:04.458Z</time>
      </trkpt>
      <trkpt lat="49.29284" lon="-0.34128">
        <ele>21.29182565842</ele>
        <time>2022-02-04T09:12:05.159Z</time>
      </trkpt>
      <trkpt lat="49.29224" lon="-0.34212">
        <ele>22.03390739017</ele>
        <time>2022-02-04T09:12:05.873Z</time>
      </trkpt>
      <trkpt lat="49.29202" lon="-0.34249">
        <ele>22.5733673887</ele>
        <time>2022-02-04T09:12:06.592Z</time>
      </trkpt>
      <trkpt lat="49.29196" lon="-0.34264">
        <ele>23.05260469367</ele>
        <time>2022-02-04T09:12:07.313Z</time>
      </trkpt>
      <trkpt lat="49.29196" lon="-0.34264">
        <ele>23.48411232518</ele>
        <time>2022-02-04T09:12:08.034Z</time>
      </trkpt>
      <trkpt lat="49.2916" lon="-0.3447">
        <ele>23.74493315324</ele>
        <time>2022-02-04T09:12:08.777Z</time>
      </trkpt>
      <trkpt lat="49.29152" lon="-0.34528">
        <ele>24.10095688407</ele>
        <time>2022-02-04T09:12:09.526Z</time>
      </trkpt>
      <trkpt lat="49.29149" lon="-0.34564">
        <ele>24.41160308341</ele>
        <time>2022-02-04T09:12:10.279Z</time>
      </trkpt>
      <trkpt lat="49.29151" lon="-0.346">
        <ele>24.73855561044</ele>
        <time>2022-02-04T09:12:11.036Z</time>
      </trkpt>
      <trkpt lat="49.29163" lon="-0.34682">
        <ele>24.96005555385</ele>
        <time>2022-02-04T09:12:11.802Z</time>
      </trkpt>
      <trkpt lat="49.29191" lon="-0.34855">
        <ele>25.08375935829</ele>
        <time>2022-02-04T09:12:12.586Z</time>
      </trkpt>
      <trkpt lat="49.29192" lon="-0.34882">
        <ele>25.26032596181</ele>
        <time>2022-02-04T09:12:13.373Z</time>
      </trkpt>
      <trkpt lat="49.29189" lon="-0.34899">
        <ele>25.42654127368</ele>
        <time>2022-02-04T09:12:14.162Z</time>
      </trkpt>
      <trkpt lat="49.29138" lon="-0.35001">
        <ele>25.74516531337</ele>
        <time>2022-02-04T09:12:14.965Z</time>
      </trkpt>
      <trkpt lat="49.29123" lon="-0.35075">
        <ele>25.88662236222</ele>
        <time>2022-02-04T09:12:15.776Z</time>
      </trkpt>
      <trkpt lat="49.29105" lon="-0.35123">
        <ele>25.938134366</ele>
        <time>2022-02-04T09:12:16.592Z</time>
      </trkpt>
      <trkpt lat="49.29078" lon="-0.35173">
        <ele>26.03688096001</ele>
        <time>2022-02-04T09:12:17.415Z</time>
      </trkpt>
      <trkpt lat="49.2905" lon="-0.35245">
        <ele>26.19291980369</ele>
        <time>2022-02-04T09:12:18.247Z</time>
      </trkpt>
      <trkpt lat="49.29038" lon="-0.35283">
        <ele>26.28581626295</ele>
        <time>2022-02-04T09:12:19.083Z</time>
      </trkpt>
      <trkpt lat="49.29032" lon="-0.35286">
        <ele>26.34173660703</ele>
        <time>2022-02-04T09:12:19.920Z</time>
      </trkpt>
      <trkpt lat="49.29048" lon="-0.35345">
        <ele>26.43152351598</ele>
        <time>2022-02-04T09:12:20.764Z</time>
      </trkpt>
      <trkpt lat="49.2902" lon="-0.35383">
        <ele>26.45224474946</ele>
        <time>2022-02-04T09:12:21.614Z</time>
      </trkpt>
      <trkpt lat="49.29008" lon="-0.35399">
        <ele>26.55851165935</ele>
        <time>2022-02-04T09:12:22.467Z</time>
      </trkpt>
      <trkpt lat="49.28989" lon="-0.35421">
        <ele>26.69180248271</ele>
        <time>2022-02-04T09:12:23.323Z</time>
      </trkpt>
      <trkpt lat="49.28966" lon="-0.35443">
        <ele>26.8807426388</ele>
        <time>2022-02-04T09:12:24.184Z</time>
      </trkpt>
      <trkpt lat="49.28954" lon="-0.35453">
        <ele>26.97219776557</ele>
        <time>2022-02-04T09:12:25.047Z</time>
      </trkpt>
      <trkpt lat="49.28929" lon="-0.35472">
        <ele>27.0677227372</ele>
        <time>2022-02-04T09:12:25.914Z</time>
      </trkpt>
      <trkpt lat="49.28912" lon="-0.35486">
        <ele>27.16882902087</ele>
        <time>2022-02-04T09:12:26.785Z</time>
      </trkpt>
      <trkpt lat="49.28912" lon="-0.35486">
        <ele>27.2772521091</ele>
        <time>2022-02-04T09:12:27.656Z</time>
      </trkpt>
      <trkpt lat="49.28852" lon="-0.35536">
        <ele>27.39489216569</ele>
        <time>2022-02-04T09:12:28.538Z</time>
      </trkpt>
      <trkpt lat="49.28838" lon="-0.35549">
        <ele>27.52375037304</ele>
        <time>2022-02-04T09:12:29.422Z</time>
      </trkpt>
      <trkpt lat="49.28785" lon="-0.35577">
        <ele>27.69752353891</ele>
        <time>2022-02-04T09:12:30.315Z</time>
      </trkpt>
      <trkpt lat="49.28746" lon="-0.35603">
        <ele>27.88500713349</ele>
        <time>2022-02-04T09:12:31.215Z</time>
      </trkpt>
      <trkpt lat="49.28746" lon="-0.35603">
        <ele>28.05897553857</ele>
        <time>2022-02-04T09:12:32.115Z</time>
      </trkpt>
      <trkpt lat="49.28712" lon="-0.35627">
        <ele>28.31299880679</ele>
        <time>2022-02-04T09:12:33.021Z</time>
      </trkpt>
      <trkpt lat="49.28623" lon="-0.35706">
        <ele>28.46388022241</ele>
        <time>2022-02-04T09:12:33.943Z</time>
      </trkpt>
      <trkpt lat="49.286" lon="-0.35643">
        <ele>28.81497096786</ele>
        <time>2022-02-04T09:12:34.873Z</time>
      </trkpt>
      <trkpt lat="49.28578" lon="-0.35617">
        <ele>29.12204738689</ele>
        <time>2022-02-04T09:12:35.807Z</time>
      </trkpt>
      <trkpt lat="49.28561" lon="-0.35603">
        <ele>29.42782725879</ele>
        <time>2022-02-04T09:12:36.744Z</time>
      </trkpt>
      <trkpt lat="49.28555" lon="-0.356">
        <ele>29.74056371491</ele>
        <time>2022-02-04T09:12:37.683Z</time>
      </trkpt>
      <trkpt lat="49.28532" lon="-0.35605">
        <ele>30.08429961229</ele>
        <time>2022-02-04T09:12:38.625Z</time>
      </trkpt>
      <trkpt lat="49.28489" lon="-0.35608">
        <ele>30.46278660419</ele>
        <time>2022-02-04T09:12:39.574Z</time>
      </trkpt>
      <trkpt lat="49.28483" lon="-0.35608">
        <ele>30.87989871452</ele>
        <time>2022-02-04T09:12:40.524Z</time>
      </trkpt>
      <trkpt lat="49.28461" lon="-0.3561">
        <ele>31.34351752802</ele>
        <time>2022-02-04T09:12:41.478Z</time>
      </trkpt>
      <trkpt lat="49.28397" lon="-0.35613">
        <ele>31.9064801434</ele>
        <time>2022-02-04T09:12:42.442Z</time>
      </trkpt>
      <trkpt lat="49.28348" lon="-0.35617">
        <ele>32.4235970875</ele>
        <time>2022-02-04T09:12:43.414Z</time>
      </trkpt>
      <trkpt lat="49.28283" lon="-0.35619">
        <ele>32.96876291811</ele>
        <time>2022-02-04T09:12:44.396Z</time>
      </trkpt>
      <trkpt lat="49.28162" lon="-0.35622">
        <ele>33.51576163619</ele>
        <time>2022-02-04T09:12:45.397Z</time>
      </trkpt>
      <trkpt lat="49.28134" lon="-0.35625">
        <ele>34.29361031344</ele>
        <time>2022-02-04T09:12:46.403Z</time>
      </trkpt>
      <trkpt lat="49.28084" lon="-0.35638">
        <ele>35.29192230868</ele>
        <time>2022-02-04T09:12:47.417Z</time>
      </trkpt>
      <trkpt lat="49.28016" lon="-0.35649">
        <ele>36.38363424321</ele>
        <time>2022-02-04T09:12:48.442Z</time>
      </trkpt>
      <trkpt lat="49.27992" lon="-0.35656">
        <ele>37.26466491768</ele>
        <time>2022-02-04T09:12:49.471Z</time>
      </trkpt>
      <trkpt lat="49.27983" lon="-0.35664">
        <ele>38.16190986486</ele>
        <time>2022-02-04T09:12:50.502Z</time>
      </trkpt>
      <trkpt lat="49.27963" lon="-0.35682">
        <ele>40.05096981959</ele>
        <time>2022-02-04T09:12:51.536Z</time>
      </trkpt>
      <trkpt lat="49.2794" lon="-0.35701">
        <ele>41.07572431292</ele>
        <time>2022-02-04T09:12:52.575Z</time>
      </trkpt>
      <trkpt lat="49.27933" lon="-0.35716">
        <ele>42.08298020053</ele>
        <time>2022-02-04T09:12:53.616Z</time>
      </trkpt>
      <trkpt lat="49.2791" lon="-0.3575">
        <ele>43.18988727905</ele>
        <time>2022-02-04T09:12:54.662Z</time>
      </trkpt>
      <trkpt lat="49.27884" lon="-0.35802">
        <ele>44.30703757643</ele>
        <time>2022-02-04T09:12:55.714Z</time>
      </trkpt>
      <trkpt lat="49.27864" lon="-0.35829">
        <ele>45.43617525239</ele>
        <time>2022-02-04T09:12:56.771Z</time>
      </trkpt>
      <trkpt lat="49.27819" lon="-0.35878">
        <ele>46.48180617387</ele>
        <time>2022-02-04T09:12:57.837Z</time>
      </trkpt>
      <trkpt lat="49.27816" lon="-0.35924">
        <ele>47.35502684151</ele>
        <time>2022-02-04T09:12:58.907Z</time>
      </trkpt>
      <trkpt lat="49.27818" lon="-0.3596">
        <ele>48.2688875127</ele>
        <time>2022-02-04T09:12:59.981Z</time>
      </trkpt>
      <trkpt lat="49.2782" lon="-0.35973">
        <ele>49.14736103734</ele>
        <time>2022-02-04T09:13:01.057Z</time>
      </trkpt>
      <trkpt lat="49.27809" lon="-0.36012">
        <ele>50.098165868</ele>
        <time>2022-02-04T09:13:02.137Z</time>
      </trkpt>
      <trkpt lat="49.27779" lon="-0.36089">
        <ele>51.05100919012</ele>
        <time>2022-02-04T09:13:03.226Z</time>
      </trkpt>
      <trkpt lat="49.27775" lon="-0.36106">
        <ele>51.84531312777</ele>
        <time>2022-02-04T09:13:04.317Z</time>
      </trkpt>
      <trkpt lat="49.27773" lon="-0.36125">
        <ele>52.52852557581</ele>
        <time>2022-02-04T09:13:05.410Z</time>
      </trkpt>
      <trkpt lat="49.27764" lon="-0.36164">
        <ele>53.2095169075</ele>
        <time>2022-02-04T09:13:06.508Z</time>
      </trkpt>
      <trkpt lat="49.27724" lon="-0.36312">
        <ele>53.83349478118</ele>
        <time>2022-02-04T09:13:07.622Z</time>
      </trkpt>
      <trkpt lat="49.27717" lon="-0.36348">
        <ele>54.31922352451</ele>
        <time>2022-02-04T09:13:08.740Z</time>
      </trkpt>
      <trkpt lat="49.27717" lon="-0.36348">
        <ele>54.65823504786</ele>
        <time>2022-02-04T09:13:09.858Z</time>
      </trkpt>
      <trkpt lat="49.27678" lon="-0.36516">
        <ele>55.00957103675</ele>
        <time>2022-02-04T09:13:10.995Z</time>
      </trkpt>
      <trkpt lat="49.27662" lon="-0.3662">
        <ele>55.35510111742</ele>
        <time>2022-02-04T09:13:12.143Z</time>
      </trkpt>
      <trkpt lat="49.27642" lon="-0.3678">
        <ele>55.3974110751</ele>
        <time>2022-02-04T09:13:13.308Z</time>
      </trkpt>
      <trkpt lat="49.27617" lon="-0.36923">
        <ele>55.29611710558</ele>
        <time>2022-02-04T09:13:14.489Z</time>
      </trkpt>
      <trkpt lat="49.27605" lon="-0.37031">
        <ele>55.07510886808</ele>
        <time>2022-02-04T09:13:15.681Z</time>
      </trkpt>
      <trkpt lat="49.27578" lon="-0.37285">
        <ele>54.90146540596</ele>
        <time>2022-02-04T09:13:16.900Z</time>
      </trkpt>
      <trkpt lat="49.27528" lon="-0.3757">
        <ele>54.375157674</ele>
        <time>2022-02-04T09:13:18.150Z</time>
      </trkpt>
      <trkpt lat="49.27498" lon="-0.37753">
        <ele>53.7644955448</ele>
        <time>2022-02-04T09:13:19.420Z</time>
      </trkpt>
      <trkpt lat="49.27497" lon="-0.37782">
        <ele>53.43019505205</ele>
        <time>2022-02-04T09:13:20.693Z</time>
      </trkpt>
      <trkpt lat="49.275" lon="-0.378">
        <ele>53.08851966105</ele>
        <time>2022-02-04T09:13:21.968Z</time>
      </trkpt>
      <trkpt lat="49.27489" lon="-0.37811">
        <ele>52.72263396194</ele>
        <time>2022-02-04T09:13:23.245Z</time>
      </trkpt>
      <trkpt lat="49.27481" lon="-0.37836">
        <ele>52.35375561034</ele>
        <time>2022-02-04T09:13:24.525Z</time>
      </trkpt>
      <trkpt lat="49.27478" lon="-0.37838">
        <ele>52.00332521821</ele>
        <time>2022-02-04T09:13:25.806Z</time>
      </trkpt>
      <trkpt lat="49.27263" lon="-0.37782">
        <ele>51.69086618897</ele>
        <time>2022-02-04T09:13:27.121Z</time>
      </trkpt>
      <trkpt lat="49.26949" lon="-0.37691">
        <ele>51.43876339721</ele>
        <time>2022-02-04T09:13:28.488Z</time>
      </trkpt>
      <trkpt lat="49.26895" lon="-0.37686">
        <ele>51.14507609998</ele>
        <time>2022-02-04T09:13:29.863Z</time>
      </trkpt>
      <trkpt lat="49.26818" lon="-0.37684">
        <ele>50.87181548938</ele>
        <time>2022-02-04T09:13:31.251Z</time>
      </trkpt>
      <trkpt lat="49.26816" lon="-0.37695">
        <ele>50.61920094064</ele>
        <time>2022-02-04T09:13:32.640Z</time>
      </trkpt>
      <trkpt lat="49.26811" lon="-0.37704">
        <ele>50.38655859964</ele>
        <time>2022-02-04T09:13:34.030Z</time>
      </trkpt>
      <trkpt lat="49.26807" lon="-0.37705">
        <ele>50.17241234443</ele>
        <time>2022-02-04T09:13:35.421Z</time>
      </trkpt>
      <trkpt lat="49.26782" lon="-0.37683">
        <ele>50.06587642551</ele>
        <time>2022-02-04T09:13:36.816Z</time>
      </trkpt>
      <trkpt lat="49.26661" lon="-0.37654">
        <ele>49.85405340858</ele>
        <time>2022-02-04T09:13:38.231Z</time>
      </trkpt>
      <trkpt lat="49.26399" lon="-0.37582">
        <ele>49.85662132113</ele>
        <time>2022-02-04T09:13:39.689Z</time>
      </trkpt>
      <trkpt lat="49.26316" lon="-0.37557">
        <ele>49.66028983956</ele>
        <time>2022-02-04T09:13:41.160Z</time>
      </trkpt>
      <trkpt lat="49.26039" lon="-0.37485">
        <ele>49.43178205269</ele>
        <time>2022-02-04T09:13:42.676Z</time>
      </trkpt>
      <trkpt lat="49.26015" lon="-0.37477">
        <ele>49.26802912948</ele>
        <time>2022-02-04T09:13:44.196Z</time>
      </trkpt>
      <trkpt lat="49.26015" lon="-0.37477">
        <ele>49.10180442611</ele>
        <time>2022-02-04T09:13:45.716Z</time>
      </trkpt>
      <trkpt lat="49.25866" lon="-0.37437">
        <ele>48.85936159117</ele>
        <time>2022-02-04T09:13:47.260Z</time>
      </trkpt>
      <trkpt lat="49.25768" lon="-0.37406">
        <ele>48.62289471383</ele>
        <time>2022-02-04T09:13:48.820Z</time>
      </trkpt>
      <trkpt lat="49.25766" lon="-0.37396">
        <ele>48.48688069368</ele>
        <time>2022-02-04T09:13:50.381Z</time>
      </trkpt>
      <trkpt lat="49.25684" lon="-0.37376">
        <ele>48.19506696003</ele>
        <time>2022-02-04T09:13:51.956Z</time>
      </trkpt>
      <trkpt lat="49.25648" lon="-0.37366">
        <ele>48.06441948194</ele>
        <time>2022-02-04T09:13:53.537Z</time>
      </trkpt>
      <trkpt lat="49.25648" lon="-0.37366">
        <ele>47.94826091179</ele>
        <time>2022-02-04T09:13:55.118Z</time>
      </trkpt>
      <trkpt lat="49.25643" lon="-0.37364">
        <ele>47.8473458813</ele>
        <time>2022-02-04T09:13:56.699Z</time>
      </trkpt>
      <trkpt lat="49.2556" lon="-0.37341">
        <ele>47.73818100993</ele>
        <time>2022-02-04T09:13:58.294Z</time>
      </trkpt>
      <trkpt lat="49.25552" lon="-0.37348">
        <ele>47.65186961163</ele>
        <time>2022-02-04T09:13:59.891Z</time>
      </trkpt>
      <trkpt lat="49.25547" lon="-0.37347">
        <ele>47.60221711925</ele>
        <time>2022-02-04T09:14:01.488Z</time>
      </trkpt>
      <trkpt lat="49.25524" lon="-0.37325">
        <ele>47.65046017349</ele>
        <time>2022-02-04T09:14:03.090Z</time>
      </trkpt>
      <trkpt lat="49.25524" lon="-0.37325">
        <ele>47.61920976136</ele>
        <time>2022-02-04T09:14:04.692Z</time>
      </trkpt>
      <trkpt lat="49.25496" lon="-0.37325">
        <ele>47.60221044872</ele>
        <time>2022-02-04T09:14:06.298Z</time>
      </trkpt>
      <trkpt lat="49.25463" lon="-0.37312">
        <ele>47.53884676554</ele>
        <time>2022-02-04T09:14:07.910Z</time>
      </trkpt>
      <trkpt lat="49.25362" lon="-0.37284">
        <ele>47.58767710698</ele>
        <time>2022-02-04T09:14:09.538Z</time>
      </trkpt>
      <trkpt lat="49.25362" lon="-0.37284">
        <ele>47.57533717051</ele>
        <time>2022-02-04T09:14:11.166Z</time>
      </trkpt>
      <trkpt lat="49.2531" lon="-0.3727">
        <ele>47.53563983241</ele>
        <time>2022-02-04T09:14:12.802Z</time>
      </trkpt>
      <trkpt lat="49.25257" lon="-0.37256">
        <ele>47.62151217369</ele>
        <time>2022-02-04T09:14:14.447Z</time>
      </trkpt>
      <trkpt lat="49.25252" lon="-0.37269">
        <ele>47.6096135518</ele>
        <time>2022-02-04T09:14:16.094Z</time>
      </trkpt>
      <trkpt lat="49.25265" lon="-0.3738">
        <ele>47.60186703283</ele>
        <time>2022-02-04T09:14:17.753Z</time>
      </trkpt>
      <trkpt lat="49.25265" lon="-0.3738">
        <ele>47.56632964889</ele>
        <time>2022-02-04T09:14:19.412Z</time>
      </trkpt>
      <trkpt lat="49.25269" lon="-0.37422">
        <ele>47.44863243439</ele>
        <time>2022-02-04T09:14:21.075Z</time>
      </trkpt>
      <trkpt lat="49.25269" lon="-0.37479">
        <ele>47.33334138293</ele>
        <time>2022-02-04T09:14:22.744Z</time>
      </trkpt>
      <trkpt lat="49.25266" lon="-0.37507">
        <ele>47.24772108834</ele>
        <time>2022-02-04T09:14:24.416Z</time>
      </trkpt>
      <trkpt lat="49.25263" lon="-0.37564">
        <ele>47.17658783301</ele>
        <time>2022-02-04T09:14:26.094Z</time>
      </trkpt>
      <trkpt lat="49.25255" lon="-0.37652">
        <ele>47.1107568301</ele>
        <time>2022-02-04T09:14:27.781Z</time>
      </trkpt>
      <trkpt lat="49.25241" lon="-0.37781">
        <ele>47.13153215716</ele>
        <time>2022-02-04T09:14:29.482Z</time>
      </trkpt>
      <trkpt lat="49.25241" lon="-0.37781">
        <ele>47.10356235118</ele>
        <time>2022-02-04T09:14:31.183Z</time>
      </trkpt>
      <trkpt lat="49.25235" lon="-0.37822">
        <ele>47.09539360577</ele>
        <time>2022-02-04T09:14:32.888Z</time>
      </trkpt>
      <trkpt lat="49.25236" lon="-0.37862">
        <ele>47.06727461949</ele>
        <time>2022-02-04T09:14:34.597Z</time>
      </trkpt>
      <trkpt lat="49.25249" lon="-0.37933">
        <ele>46.99245129773</ele>
        <time>2022-02-04T09:14:36.314Z</time>
      </trkpt>
      <trkpt lat="49.25254" lon="-0.37959">
        <ele>46.99512980995</ele>
        <time>2022-02-04T09:14:38.034Z</time>
      </trkpt>
      <trkpt lat="49.25254" lon="-0.37959">
        <ele>47.01981040465</ele>
        <time>2022-02-04T09:14:39.754Z</time>
      </trkpt>
      <trkpt lat="49.25258" lon="-0.37985">
        <ele>47.14452185229</ele>
        <time>2022-02-04T09:14:41.477Z</time>
      </trkpt>
      <trkpt lat="49.25259" lon="-0.38017">
        <ele>47.2842467377</ele>
        <time>2022-02-04T09:14:43.203Z</time>
      </trkpt>
      <trkpt lat="49.25258" lon="-0.38042">
        <ele>47.36141497962</ele>
        <time>2022-02-04T09:14:44.932Z</time>
      </trkpt>
      <trkpt lat="49.25252" lon="-0.38076">
        <ele>47.43599006962</ele>
        <time>2022-02-04T09:14:46.664Z</time>
      </trkpt>
      <trkpt lat="49.2524" lon="-0.3812">
        <ele>47.49172356886</ele>
        <time>2022-02-04T09:14:48.401Z</time>
      </trkpt>
      <trkpt lat="49.25213" lon="-0.38182">
        <ele>47.52746184975</ele>
        <time>2022-02-04T09:14:50.146Z</time>
      </trkpt>
      <trkpt lat="49.25213" lon="-0.38182">
        <ele>47.60832220404</ele>
        <time>2022-02-04T09:14:51.891Z</time>
      </trkpt>
      <trkpt lat="49.2516" lon="-0.38304">
        <ele>47.73643603287</ele>
        <time>2022-02-04T09:14:53.652Z</time>
      </trkpt>
      <trkpt lat="49.25166" lon="-0.38312">
        <ele>47.82130569587</ele>
        <time>2022-02-04T09:14:55.414Z</time>
      </trkpt>
      <trkpt lat="49.25169" lon="-0.38321">
        <ele>47.92036428182</ele>
        <time>2022-02-04T09:14:57.177Z</time>
      </trkpt>
      <trkpt lat="49.2517" lon="-0.38332">
        <ele>48.05591567439</ele>
        <time>2022-02-04T09:14:58.941Z</time>
      </trkpt>
      <trkpt lat="49.25169" lon="-0.38344">
        <ele>48.18354228561</ele>
        <time>2022-02-04T09:15:00.706Z</time>
      </trkpt>
      <trkpt lat="49.25188" lon="-0.3835">
        <ele>48.32289351737</ele>
        <time>2022-02-04T09:15:02.474Z</time>
      </trkpt>
      <trkpt lat="49.25197" lon="-0.38351">
        <ele>48.46443719096</ele>
        <time>2022-02-04T09:15:04.244Z</time>
      </trkpt>
      <trkpt lat="49.25208" lon="-0.3835">
        <ele>48.63301231156</ele>
        <time>2022-02-04T09:15:06.016Z</time>
      </trkpt>
      <trkpt lat="49.2522" lon="-0.38343">
        <ele>48.80500025946</ele>
        <time>2022-02-04T09:15:07.790Z</time>
      </trkpt>
      <trkpt lat="49.25241" lon="-0.38315">
        <ele>48.98472584021</ele>
        <time>2022-02-04T09:15:09.568Z</time>
      </trkpt>
      <trkpt lat="49.25241" lon="-0.38315">
        <ele>49.21224104154</ele>
        <time>2022-02-04T09:15:11.346Z</time>
      </trkpt>
      <trkpt lat="49.25248" lon="-0.38303">
        <ele>49.46009266456</ele>
        <time>2022-02-04T09:15:13.126Z</time>
      </trkpt>
      <trkpt lat="49.2527" lon="-0.38286">
        <ele>49.72777703844</ele>
        <time>2022-02-04T09:15:14.910Z</time>
      </trkpt>
      <trkpt lat="49.25295" lon="-0.38276">
        <ele>50.06755635179</ele>
        <time>2022-02-04T09:15:16.698Z</time>
      </trkpt>
      <trkpt lat="49.25314" lon="-0.38278">
        <ele>50.40939972231</ele>
        <time>2022-02-04T09:15:18.489Z</time>
      </trkpt>
      <trkpt lat="49.25422" lon="-0.38346">
        <ele>50.84698224002</ele>
        <time>2022-02-04T09:15:20.299Z</time>
      </trkpt>
      <trkpt lat="49.25471" lon="-0.38368">
        <ele>51.09641855854</ele>
        <time>2022-02-04T09:15:22.117Z</time>
      </trkpt>
      <trkpt lat="49.25556" lon="-0.38397">
        <ele>51.56647194993</ele>
        <time>2022-02-04T09:15:23.949Z</time>
      </trkpt>
      <trkpt lat="49.25626" lon="-0.38408">
        <ele>51.90886855512</ele>
        <time>2022-02-04T09:15:25.792Z</time>
      </trkpt>
      <trkpt lat="49.25721" lon="-0.38408">
        <ele>52.3661460898</ele>
        <time>2022-02-04T09:15:27.650Z</time>
      </trkpt>
      <trkpt lat="49.25811" lon="-0.3839">
        <ele>52.64056245252</ele>
        <time>2022-02-04T09:15:29.523Z</time>
      </trkpt>
      <trkpt lat="49.25911" lon="-0.38345">
        <ele>52.75617562454</ele>
        <time>2022-02-04T09:15:31.413Z</time>
      </trkpt>
      <trkpt lat="49.25942" lon="-0.38337">
        <ele>53.048984098</ele>
        <time>2022-02-04T09:15:33.308Z</time>
      </trkpt>
      <trkpt lat="49.25963" lon="-0.38328">
        <ele>53.42929721283</ele>
        <time>2022-02-04T09:15:35.206Z</time>
      </trkpt>
      <trkpt lat="49.25982" lon="-0.38303">
        <ele>53.75819384618</ele>
        <time>2022-02-04T09:15:37.108Z</time>
      </trkpt>
      <trkpt lat="49.25988" lon="-0.38299">
        <ele>54.03954500314</ele>
        <time>2022-02-04T09:15:39.011Z</time>
      </trkpt>
      <trkpt lat="49.25997" lon="-0.38303">
        <ele>54.30274352989</ele>
        <time>2022-02-04T09:15:40.916Z</time>
      </trkpt>
      <trkpt lat="49.26002" lon="-0.38311">
        <ele>54.53895875128</ele>
        <time>2022-02-04T09:15:42.822Z</time>
      </trkpt>
      <trkpt lat="49.26013" lon="-0.38323">
        <ele>54.75774466256</ele>
        <time>2022-02-04T09:15:44.730Z</time>
      </trkpt>
      <trkpt lat="49.26023" lon="-0.38333">
        <ele>54.95440340233</ele>
        <time>2022-02-04T09:15:46.640Z</time>
      </trkpt>
      <trkpt lat="49.26051" lon="-0.38351">
        <ele>55.12435480314</ele>
        <time>2022-02-04T09:15:48.555Z</time>
      </trkpt>
      <trkpt lat="49.26071" lon="-0.38372">
        <ele>55.32927281057</ele>
        <time>2022-02-04T09:15:50.474Z</time>
      </trkpt>
      <trkpt lat="49.26093" lon="-0.38409">
        <ele>55.49774323392</ele>
        <time>2022-02-04T09:15:52.398Z</time>
      </trkpt>
      <trkpt lat="49.26113" lon="-0.38478">
        <ele>55.61248796672</ele>
        <time>2022-02-04T09:15:54.330Z</time>
      </trkpt>
      <trkpt lat="49.26113" lon="-0.38478">
        <ele>55.70104127039</ele>
        <time>2022-02-04T09:15:56.262Z</time>
      </trkpt>
      <trkpt lat="49.2613" lon="-0.38566">
        <ele>55.73617103459</ele>
        <time>2022-02-04T09:15:58.203Z</time>
      </trkpt>
      <trkpt lat="49.26136" lon="-0.38702">
        <ele>55.85052463906</ele>
        <time>2022-02-04T09:16:00.159Z</time>
      </trkpt>
      <trkpt lat="49.26134" lon="-0.38783">
        <ele>55.86794933897</ele>
        <time>2022-02-04T09:16:02.123Z</time>
      </trkpt>
      <trkpt lat="49.26143" lon="-0.38812">
        <ele>55.86743864213</ele>
        <time>2022-02-04T09:16:04.090Z</time>
      </trkpt>
      <trkpt lat="49.26143" lon="-0.38812">
        <ele>55.74083422459</ele>
        <time>2022-02-04T09:16:06.057Z</time>
      </trkpt>
      <trkpt lat="49.26143" lon="-0.38812">
        <ele>55.63676388384</ele>
        <time>2022-02-04T09:16:08.024Z</time>
      </trkpt>
      <trkpt lat="49.26252" lon="-0.39041">
        <ele>55.20028724858</ele>
        <time>2022-02-04T09:16:10.021Z</time>
      </trkpt>
      <trkpt lat="49.26258" lon="-0.39057">
        <ele>54.83119183125</ele>
        <time>2022-02-04T09:16:12.020Z</time>
      </trkpt>
      <trkpt lat="49.26258" lon="-0.39057">
        <ele>54.43493397252</ele>
        <time>2022-02-04T09:16:14.019Z</time>
      </trkpt>
      <trkpt lat="49.26258" lon="-0.39058">
        <ele>54.01129213879</ele>
        <time>2022-02-04T09:16:16.018Z</time>
      </trkpt>
      <trkpt lat="49.26258" lon="-0.39058">
        <ele>53.57480977018</ele>
        <time>2022-02-04T09:16:18.017Z</time>
      </trkpt>
      <trkpt lat="49.2626" lon="-0.39062">
        <ele>53.13449952204</ele>
        <time>2022-02-04T09:16:20.017Z</time>
      </trkpt>
      <trkpt lat="49.26266" lon="-0.39099">
        <ele>52.75511692564</ele>
        <time>2022-02-04T09:16:22.021Z</time>
      </trkpt>
      <trkpt lat="49.26271" lon="-0.39112">
        <ele>52.34842358708</ele>
        <time>2022-02-04T09:16:24.026Z</time>
      </trkpt>
      <trkpt lat="49.26288" lon="-0.39147">
        <ele>52.03465687131</ele>
        <time>2022-02-04T09:16:26.036Z</time>
      </trkpt>
      <trkpt lat="49.2641" lon="-0.39352">
        <ele>51.48597507186</ele>
        <time>2022-02-04T09:16:28.075Z</time>
      </trkpt>
      <trkpt lat="49.26447" lon="-0.39411">
        <ele>51.26698710065</ele>
        <time>2022-02-04T09:16:30.122Z</time>
      </trkpt>
      <trkpt lat="49.26449" lon="-0.39418">
        <ele>51.20389432105</ele>
        <time>2022-02-04T09:16:32.170Z</time>
      </trkpt>
      <trkpt lat="49.26449" lon="-0.39456">
        <ele>51.30809247138</ele>
        <time>2022-02-04T09:16:34.222Z</time>
      </trkpt>
      <trkpt lat="49.26457" lon="-0.39489">
        <ele>51.58816137821</ele>
        <time>2022-02-04T09:16:36.278Z</time>
      </trkpt>
      <trkpt lat="49.26457" lon="-0.39489">
        <ele>52.02880143109</ele>
        <time>2022-02-04T09:16:38.334Z</time>
      </trkpt>
      <trkpt lat="49.26506" lon="-0.3959">
        <ele>52.80436340595</ele>
        <time>2022-02-04T09:16:40.403Z</time>
      </trkpt>
      <trkpt lat="49.2652" lon="-0.39632">
        <ele>53.56344969011</ele>
        <time>2022-02-04T09:16:42.477Z</time>
      </trkpt>
      <trkpt lat="49.26528" lon="-0.39661">
        <ele>54.41710396977</ele>
        <time>2022-02-04T09:16:44.554Z</time>
      </trkpt>
      <trkpt lat="49.26533" lon="-0.39673">
        <ele>55.19480000828</ele>
        <time>2022-02-04T09:16:46.633Z</time>
      </trkpt>
      <trkpt lat="49.2654" lon="-0.39683">
        <ele>55.92865565606</ele>
        <time>2022-02-04T09:16:48.713Z</time>
      </trkpt>
      <trkpt lat="49.26562" lon="-0.3974">
        <ele>56.58840184388</ele>
        <time>2022-02-04T09:16:50.800Z</time>
      </trkpt>
      <trkpt lat="49.26594" lon="-0.39808">
        <ele>57.35721906655</ele>
        <time>2022-02-04T09:16:52.896Z</time>
      </trkpt>
      <trkpt lat="49.26629" lon="-0.39871">
        <ele>58.03537281056</ele>
        <time>2022-02-04T09:16:55.001Z</time>
      </trkpt>
      <trkpt lat="49.26645" lon="-0.39911">
        <ele>58.56284490914</ele>
        <time>2022-02-04T09:16:57.111Z</time>
      </trkpt>
      <trkpt lat="49.26663" lon="-0.39967">
        <ele>59.02631022859</ele>
        <time>2022-02-04T09:16:59.227Z</time>
      </trkpt>
      <trkpt lat="49.26674" lon="-0.40006">
        <ele>59.43659422056</ele>
        <time>2022-02-04T09:17:01.348Z</time>
      </trkpt>
      <trkpt lat="49.26677" lon="-0.40017">
        <ele>59.72156320318</ele>
        <time>2022-02-04T09:17:03.470Z</time>
      </trkpt>
      <trkpt lat="49.2669" lon="-0.40078">
        <ele>59.89456336055</ele>
        <time>2022-02-04T09:17:05.599Z</time>
      </trkpt>
      <trkpt lat="49.267" lon="-0.40115">
        <ele>59.99180037299</ele>
        <time>2022-02-04T09:17:07.732Z</time>
      </trkpt>
      <trkpt lat="49.26707" lon="-0.40126">
        <ele>60.04760972744</ele>
        <time>2022-02-04T09:17:09.866Z</time>
      </trkpt>
      <trkpt lat="49.26708" lon="-0.40128">
        <ele>60.09249347029</ele>
        <time>2022-02-04T09:17:12.001Z</time>
      </trkpt>
      <trkpt lat="49.2671" lon="-0.40134">
        <ele>60.1284924452</ele>
        <time>2022-02-04T09:17:14.136Z</time>
      </trkpt>
      <trkpt lat="49.26709" lon="-0.40141">
        <ele>60.18978697185</ele>
        <time>2022-02-04T09:17:16.272Z</time>
      </trkpt>
      <trkpt lat="49.26705" lon="-0.40144">
        <ele>60.27150817769</ele>
        <time>2022-02-04T09:17:18.409Z</time>
      </trkpt>
      <trkpt lat="49.26703" lon="-0.40145">
        <ele>60.36351061528</ele>
        <time>2022-02-04T09:17:20.546Z</time>
      </trkpt>
      <trkpt lat="49.26694" lon="-0.40152">
        <ele>60.49983978902</ele>
        <time>2022-02-04T09:17:22.685Z</time>
      </trkpt>
      <trkpt lat="49.26673" lon="-0.40186">
        <ele>60.65660081408</ele>
        <time>2022-02-04T09:17:24.829Z</time>
      </trkpt>
      <trkpt lat="49.26647" lon="-0.40211">
        <ele>60.77524528869</ele>
        <time>2022-02-04T09:17:26.978Z</time>
      </trkpt>
      <trkpt lat="49.26636" lon="-0.40222">
        <ele>60.8899995612</ele>
        <time>2022-02-04T09:17:29.129Z</time>
      </trkpt>
      <trkpt lat="49.26634" lon="-0.40234">
        <ele>60.9960691536</ele>
        <time>2022-02-04T09:17:31.281Z</time>
      </trkpt>
      <trkpt lat="49.26633" lon="-0.40328">
        <ele>61.09466267525</ele>
        <time>2022-02-04T09:17:33.443Z</time>
      </trkpt>
      <trkpt lat="49.26626" lon="-0.40351">
        <ele>61.16771610678</ele>
        <time>2022-02-04T09:17:35.608Z</time>
      </trkpt>
      <trkpt lat="49.26616" lon="-0.40411">
        <ele>61.22793973597</ele>
        <time>2022-02-04T09:17:37.779Z</time>
      </trkpt>
      <trkpt lat="49.26613" lon="-0.40419">
        <ele>61.2684707143</ele>
        <time>2022-02-04T09:17:39.951Z</time>
      </trkpt>
      <trkpt lat="49.26572" lon="-0.40466">
        <ele>61.23440853198</ele>
        <time>2022-02-04T09:17:42.131Z</time>
      </trkpt>
      <trkpt lat="49.26567" lon="-0.4047">
        <ele>61.22380620313</ele>
        <time>2022-02-04T09:17:44.312Z</time>
      </trkpt>
      <trkpt lat="49.26546" lon="-0.40494">
        <ele>61.20135569063</ele>
        <time>2022-02-04T09:17:46.497Z</time>
      </trkpt>
      <trkpt lat="49.26545" lon="-0.40502">
        <ele>61.15056395709</ele>
        <time>2022-02-04T09:17:48.683Z</time>
      </trkpt>
      <trkpt lat="49.26543" lon="-0.40511">
        <ele>61.05958834926</ele>
        <time>2022-02-04T09:17:50.870Z</time>
      </trkpt>
      <trkpt lat="49.26544" lon="-0.40554">
        <ele>60.90701687116</ele>
        <time>2022-02-04T09:17:53.062Z</time>
      </trkpt>
      <trkpt lat="49.26546" lon="-0.40688">
        <ele>60.52585063237</ele>
        <time>2022-02-04T09:17:55.268Z</time>
      </trkpt>
      <trkpt lat="49.26547" lon="-0.40776">
        <ele>60.16651254602</ele>
        <time>2022-02-04T09:17:57.483Z</time>
      </trkpt>
      <trkpt lat="49.26554" lon="-0.40864">
        <ele>59.70149982625</ele>
        <time>2022-02-04T09:17:59.707Z</time>
      </trkpt>
      <trkpt lat="49.26559" lon="-0.40879">
        <ele>59.12100563693</ele>
        <time>2022-02-04T09:18:01.933Z</time>
      </trkpt>
      <trkpt lat="49.26564" lon="-0.40886">
        <ele>58.4567413092</ele>
        <time>2022-02-04T09:18:04.160Z</time>
      </trkpt>
      <trkpt lat="49.26564" lon="-0.40886">
        <ele>57.71309956762</ele>
        <time>2022-02-04T09:18:06.387Z</time>
      </trkpt>
      <trkpt lat="49.26565" lon="-0.40887">
        <ele>56.8590509055</ele>
        <time>2022-02-04T09:18:08.614Z</time>
      </trkpt>
      <trkpt lat="49.26565" lon="-0.40887">
        <ele>55.89509099985</ele>
        <time>2022-02-04T09:18:10.841Z</time>
      </trkpt>
      <trkpt lat="49.26575" lon="-0.40894">
        <ele>54.80665883694</ele>
        <time>2022-02-04T09:18:13.070Z</time>
      </trkpt>
      <trkpt lat="49.26675" lon="-0.40891">
        <ele>53.5256685299</ele>
        <time>2022-02-04T09:18:15.315Z</time>
      </trkpt>
      <trkpt lat="49.26826" lon="-0.40882">
        <ele>52.18558621434</ele>
        <time>2022-02-04T09:18:17.584Z</time>
      </trkpt>
      <trkpt lat="49.26897" lon="-0.4088">
        <ele>50.85418602824</ele>
        <time>2022-02-04T09:18:19.865Z</time>
      </trkpt>
      <trkpt lat="49.26941" lon="-0.40881">
        <ele>49.75698450074</ele>
        <time>2022-02-04T09:18:22.153Z</time>
      </trkpt>
      <trkpt lat="49.26956" lon="-0.40889">
        <ele>48.86974617844</ele>
        <time>2022-02-04T09:18:24.443Z</time>
      </trkpt>
      <trkpt lat="49.26981" lon="-0.40909">
        <ele>48.18784336737</ele>
        <time>2022-02-04T09:18:26.738Z</time>
      </trkpt>
      <trkpt lat="49.27015" lon="-0.40948">
        <ele>47.53930060513</ele>
        <time>2022-02-04T09:18:29.040Z</time>
      </trkpt>
      <trkpt lat="49.27043" lon="-0.40997">
        <ele>47.02604468996</ele>
        <time>2022-02-04T09:18:31.348Z</time>
      </trkpt>
      <trkpt lat="49.27043" lon="-0.40997">
        <ele>46.8210825028</ele>
        <time>2022-02-04T09:18:33.656Z</time>
      </trkpt>
      <trkpt lat="49.27057" lon="-0.4103">
        <ele>46.80560703549</ele>
        <time>2022-02-04T09:18:35.969Z</time>
      </trkpt>
      <trkpt lat="49.27121" lon="-0.41215">
        <ele>47.13665826923</ele>
        <time>2022-02-04T09:18:38.303Z</time>
      </trkpt>
      <trkpt lat="49.27134" lon="-0.41251">
        <ele>47.50088807784</ele>
        <time>2022-02-04T09:18:40.642Z</time>
      </trkpt>
      <trkpt lat="49.27156" lon="-0.41289">
        <ele>48.07508139956</ele>
        <time>2022-02-04T09:18:42.986Z</time>
      </trkpt>
      <trkpt lat="49.27166" lon="-0.41304">
        <ele>48.7413743642</ele>
        <time>2022-02-04T09:18:45.332Z</time>
      </trkpt>
      <trkpt lat="49.27199" lon="-0.41345">
        <ele>49.5708743679</ele>
        <time>2022-02-04T09:18:47.685Z</time>
      </trkpt>
      <trkpt lat="49.27238" lon="-0.41381">
        <ele>50.50679486083</ele>
        <time>2022-02-04T09:18:50.045Z</time>
      </trkpt>
      <trkpt lat="49.27289" lon="-0.41424">
        <ele>51.27791713935</ele>
        <time>2022-02-04T09:18:52.415Z</time>
      </trkpt>
      <trkpt lat="49.27313" lon="-0.41451">
        <ele>52.20414771405</ele>
        <time>2022-02-04T09:18:54.790Z</time>
      </trkpt>
      <trkpt lat="49.274" lon="-0.41569">
        <ele>53.41576516049</ele>
        <time>2022-02-04T09:18:57.183Z</time>
      </trkpt>
      <trkpt lat="49.27507" lon="-0.41699">
        <ele>54.63133591784</ele>
        <time>2022-02-04T09:18:59.598Z</time>
      </trkpt>
      <trkpt lat="49.2759" lon="-0.41787">
        <ele>55.83714283396</ele>
        <time>2022-02-04T09:19:02.029Z</time>
      </trkpt>
      <trkpt lat="49.27676" lon="-0.41866">
        <ele>56.77866114297</ele>
        <time>2022-02-04T09:19:04.476Z</time>
      </trkpt>
      <trkpt lat="49.27703" lon="-0.41897">
        <ele>57.60808436601</ele>
        <time>2022-02-04T09:19:06.929Z</time>
      </trkpt>
      <trkpt lat="49.27713" lon="-0.41916">
        <ele>58.36404497398</ele>
        <time>2022-02-04T09:19:09.384Z</time>
      </trkpt>
      <trkpt lat="49.27717" lon="-0.41925">
        <ele>58.93997615562</ele>
        <time>2022-02-04T09:19:11.840Z</time>
      </trkpt>
      <trkpt lat="49.27727" lon="-0.41957">
        <ele>59.37666601939</ele>
        <time>2022-02-04T09:19:14.300Z</time>
      </trkpt>
      <trkpt lat="49.27748" lon="-0.42051">
        <ele>59.64153030917</ele>
        <time>2022-02-04T09:19:16.770Z</time>
      </trkpt>
      <trkpt lat="49.27769" lon="-0.42121">
        <ele>59.96475530188</ele>
        <time>2022-02-04T09:19:19.249Z</time>
      </trkpt>
      <trkpt lat="49.27808" lon="-0.42233">
        <ele>60.07693730394</ele>
        <time>2022-02-04T09:19:21.741Z</time>
      </trkpt>
      <trkpt lat="49.2785" lon="-0.4232">
        <ele>60.1009842263</ele>
        <time>2022-02-04T09:19:24.244Z</time>
      </trkpt>
      <trkpt lat="49.2785" lon="-0.4232">
        <ele>60.10709352161</ele>
        <time>2022-02-04T09:19:26.747Z</time>
      </trkpt>
      <trkpt lat="49.2788" lon="-0.42362">
        <ele>60.06776378964</ele>
        <time>2022-02-04T09:19:29.257Z</time>
      </trkpt>
      <trkpt lat="49.27905" lon="-0.42381">
        <ele>60.02793731206</ele>
        <time>2022-02-04T09:19:31.771Z</time>
      </trkpt>
      <trkpt lat="49.27958" lon="-0.42429">
        <ele>60.0098389607</ele>
        <time>2022-02-04T09:19:34.295Z</time>
      </trkpt>
      <trkpt lat="49.27958" lon="-0.42429">
        <ele>59.98582137675</ele>
        <time>2022-02-04T09:19:36.819Z</time>
      </trkpt>
      <trkpt lat="49.28033" lon="-0.42401">
        <ele>60.02460283759</ele>
        <time>2022-02-04T09:19:39.355Z</time>
      </trkpt>
      <trkpt lat="49.28033" lon="-0.42401">
        <ele>60.00616697864</ele>
        <time>2022-02-04T09:19:41.891Z</time>
      </trkpt>
      <trkpt lat="49.28033" lon="-0.42401">
        <ele>59.97862851731</ele>
        <time>2022-02-04T09:19:44.427Z</time>
      </trkpt>
      <trkpt lat="49.28033" lon="-0.42401">
        <ele>59.93460417974</ele>
        <time>2022-02-04T09:19:46.963Z</time>
      </trkpt>
      <trkpt lat="49.28035" lon="-0.424">
        <ele>59.8717160946</ele>
        <time>2022-02-04T09:19:49.500Z</time>
      </trkpt>
      <trkpt lat="49.28045" lon="-0.42404">
        <ele>59.80598468531</ele>
        <time>2022-02-04T09:19:52.038Z</time>
      </trkpt>
      <trkpt lat="49.28045" lon="-0.42404">
        <ele>59.68030762213</ele>
        <time>2022-02-04T09:19:54.576Z</time>
      </trkpt>
      <trkpt lat="49.28051" lon="-0.42411">
        <ele>59.5522851943</ele>
        <time>2022-02-04T09:19:57.116Z</time>
      </trkpt>
      <trkpt lat="49.28079" lon="-0.42538">
        <ele>59.25524820776</ele>
        <time>2022-02-04T09:19:59.670Z</time>
      </trkpt>
      <trkpt lat="49.28086" lon="-0.42557">
        <ele>59.05084552238</ele>
        <time>2022-02-04T09:20:02.226Z</time>
      </trkpt>
      <trkpt lat="49.28095" lon="-0.42573">
        <ele>58.88089011528</ele>
        <time>2022-02-04T09:20:04.784Z</time>
      </trkpt>
      <trkpt lat="49.28128" lon="-0.4262">
        <ele>58.81719936057</ele>
        <time>2022-02-04T09:20:07.349Z</time>
      </trkpt>
      <trkpt lat="49.28128" lon="-0.4262">
        <ele>58.71137065921</ele>
        <time>2022-02-04T09:20:09.914Z</time>
      </trkpt>
      <trkpt lat="49.28175" lon="-0.42685">
        <ele>58.62314887553</ele>
        <time>2022-02-04T09:20:12.489Z</time>
      </trkpt>
      <trkpt lat="49.28175" lon="-0.42685">
        <ele>58.6344040286</ele>
        <time>2022-02-04T09:20:15.064Z</time>
      </trkpt>
      <trkpt lat="49.28201" lon="-0.42722">
        <ele>58.60666088488</ele>
        <time>2022-02-04T09:20:17.645Z</time>
      </trkpt>
      <trkpt lat="49.2822" lon="-0.42749">
        <ele>58.66894233445</ele>
        <time>2022-02-04T09:20:20.230Z</time>
      </trkpt>
      <trkpt lat="49.28329" lon="-0.42902">
        <ele>59.16051614465</ele>
        <time>2022-02-04T09:20:22.839Z</time>
      </trkpt>
      <trkpt lat="49.28355" lon="-0.42937">
        <ele>59.63060844845</ele>
        <time>2022-02-04T09:20:25.454Z</time>
      </trkpt>
      <trkpt lat="49.28504" lon="-0.43137">
        <ele>60.28936165007</ele>
        <time>2022-02-04T09:20:28.100Z</time>
      </trkpt>
      <trkpt lat="49.28553" lon="-0.43198">
        <ele>60.93282008822</ele>
        <time>2022-02-04T09:20:30.756Z</time>
      </trkpt>
      <trkpt lat="49.28594" lon="-0.43225">
        <ele>61.44187941009</ele>
        <time>2022-02-04T09:20:33.420Z</time>
      </trkpt>
      <trkpt lat="49.28791" lon="-0.43289">
        <ele>61.9912503272</ele>
        <time>2022-02-04T09:20:36.116Z</time>
      </trkpt>
      <trkpt lat="49.28858" lon="-0.43308">
        <ele>62.19885039705</ele>
        <time>2022-02-04T09:20:38.823Z</time>
      </trkpt>
      <trkpt lat="49.2888" lon="-0.43318">
        <ele>62.32789557271</ele>
        <time>2022-02-04T09:20:41.533Z</time>
      </trkpt>
      <trkpt lat="49.2888" lon="-0.43318">
        <ele>62.35126506311</ele>
        <time>2022-02-04T09:20:44.243Z</time>
      </trkpt>
      <trkpt lat="49.28929" lon="-0.43295">
        <ele>62.22717209215</ele>
        <time>2022-02-04T09:20:46.962Z</time>
      </trkpt>
      <trkpt lat="49.29031" lon="-0.43236">
        <ele>61.9182292538</ele>
        <time>2022-02-04T09:20:49.698Z</time>
      </trkpt>
      <trkpt lat="49.29056" lon="-0.4323">
        <ele>61.59603633735</ele>
        <time>2022-02-04T09:20:52.438Z</time>
      </trkpt>
      <trkpt lat="49.29071" lon="-0.43228">
        <ele>61.26728239436</ele>
        <time>2022-02-04T09:20:55.181Z</time>
      </trkpt>
      <trkpt lat="49.2909" lon="-0.43232">
        <ele>60.86330920389</ele>
        <time>2022-02-04T09:20:57.927Z</time>
      </trkpt>
      <trkpt lat="49.29094" lon="-0.43235">
        <ele>60.48780766797</ele>
        <time>2022-02-04T09:21:00.673Z</time>
      </trkpt>
      <trkpt lat="49.29112" lon="-0.43249">
        <ele>60.07952242762</ele>
        <time>2022-02-04T09:21:03.423Z</time>
      </trkpt>
      <trkpt lat="49.29142" lon="-0.43296">
        <ele>59.71315938634</ele>
        <time>2022-02-04T09:21:06.179Z</time>
      </trkpt>
      <trkpt lat="49.29152" lon="-0.43304">
        <ele>59.37752197316</ele>
        <time>2022-02-04T09:21:08.937Z</time>
      </trkpt>
      <trkpt lat="49.29168" lon="-0.43308">
        <ele>58.99623191118</ele>
        <time>2022-02-04T09:21:11.698Z</time>
      </trkpt>
      <trkpt lat="49.29237" lon="-0.43309">
        <ele>58.56668725602</ele>
        <time>2022-02-04T09:21:14.470Z</time>
      </trkpt>
      <trkpt lat="49.29271" lon="-0.43303">
        <ele>58.146029767</ele>
        <time>2022-02-04T09:21:17.248Z</time>
      </trkpt>
      <trkpt lat="49.29334" lon="-0.43283">
        <ele>57.54579518736</ele>
        <time>2022-02-04T09:21:20.036Z</time>
      </trkpt>
      <trkpt lat="49.29359" lon="-0.43276">
        <ele>56.8182501393</ele>
        <time>2022-02-04T09:21:22.828Z</time>
      </trkpt>
      <trkpt lat="49.29389" lon="-0.43274">
        <ele>55.95588660015</ele>
        <time>2022-02-04T09:21:25.625Z</time>
      </trkpt>
      <trkpt lat="49.29576" lon="-0.43276">
        <ele>54.74720242182</ele>
        <time>2022-02-04T09:21:28.452Z</time>
      </trkpt>
      <trkpt lat="49.29674" lon="-0.43275">
        <ele>53.49047006042</ele>
        <time>2022-02-04T09:21:31.294Z</time>
      </trkpt>
      <trkpt lat="49.29674" lon="-0.43275">
        <ele>52.43750095321</ele>
        <time>2022-02-04T09:21:34.136Z</time>
      </trkpt>
      <trkpt lat="49.29828" lon="-0.43273">
        <ele>51.15013454098</ele>
        <time>2022-02-04T09:21:37.003Z</time>
      </trkpt>
      <trkpt lat="49.29854" lon="-0.43273">
        <ele>50.26295633695</ele>
        <time>2022-02-04T09:21:39.874Z</time>
      </trkpt>
      <trkpt lat="49.29866" lon="-0.43272">
        <ele>49.4489410475</ele>
        <time>2022-02-04T09:21:42.747Z</time>
      </trkpt>
      <trkpt lat="49.29887" lon="-0.43276">
        <ele>48.74809368633</ele>
        <time>2022-02-04T09:21:45.623Z</time>
      </trkpt>
      <trkpt lat="49.29911" lon="-0.43283">
        <ele>48.12646049479</ele>
        <time>2022-02-04T09:21:48.503Z</time>
      </trkpt>
      <trkpt lat="49.29935" lon="-0.43295">
        <ele>47.48812682443</ele>
        <time>2022-02-04T09:21:51.387Z</time>
      </trkpt>
      <trkpt lat="49.29955" lon="-0.43309">
        <ele>46.90399260444</ele>
        <time>2022-02-04T09:21:54.275Z</time>
      </trkpt>
      <trkpt lat="49.29978" lon="-0.43331">
        <ele>46.35700014789</ele>
        <time>2022-02-04T09:21:57.167Z</time>
      </trkpt>
      <trkpt lat="49.30197" lon="-0.43585">
        <ele>45.5842455329</ele>
        <time>2022-02-04T09:22:00.103Z</time>
      </trkpt>
      <trkpt lat="49.30217" lon="-0.43615">
        <ele>45.10665709921</ele>
        <time>2022-02-04T09:22:03.044Z</time>
      </trkpt>
      <trkpt lat="49.30223" lon="-0.4363">
        <ele>44.81009528484</ele>
        <time>2022-02-04T09:22:05.987Z</time>
      </trkpt>
      <trkpt lat="49.30242" lon="-0.43703">
        <ele>44.60161634419</ele>
        <time>2022-02-04T09:22:08.938Z</time>
      </trkpt>
      <trkpt lat="49.30249" lon="-0.43722">
        <ele>44.53198361386</ele>
        <time>2022-02-04T09:22:11.891Z</time>
      </trkpt>
      <trkpt lat="49.30261" lon="-0.43739">
        <ele>44.58356454438</ele>
        <time>2022-02-04T09:22:14.847Z</time>
      </trkpt>
      <trkpt lat="49.30272" lon="-0.43748">
        <ele>44.72030604066</ele>
        <time>2022-02-04T09:22:17.805Z</time>
      </trkpt>
      <trkpt lat="49.30283" lon="-0.4375">
        <ele>44.91444693935</ele>
        <time>2022-02-04T09:22:20.765Z</time>
      </trkpt>
      <trkpt lat="49.30297" lon="-0.43746">
        <ele>45.14757629553</ele>
        <time>2022-02-04T09:22:23.727Z</time>
      </trkpt>
      <trkpt lat="49.30322" lon="-0.43719">
        <ele>45.36061875268</ele>
        <time>2022-02-04T09:22:26.694Z</time>
      </trkpt>
      <trkpt lat="49.30324" lon="-0.43703">
        <ele>45.54714554387</ele>
        <time>2022-02-04T09:22:29.662Z</time>
      </trkpt>
      <trkpt lat="49.30331" lon="-0.43688">
        <ele>45.69730125352</ele>
        <time>2022-02-04T09:22:32.632Z</time>
      </trkpt>
      <trkpt lat="49.30338" lon="-0.43684">
        <ele>45.78814885986</ele>
        <time>2022-02-04T09:22:35.603Z</time>
      </trkpt>
      <trkpt lat="49.30348" lon="-0.4368">
        <ele>45.81848743218</ele>
        <time>2022-02-04T09:22:38.576Z</time>
      </trkpt>
      <trkpt lat="49.30359" lon="-0.43686">
        <ele>45.77258088172</ele>
        <time>2022-02-04T09:22:41.551Z</time>
      </trkpt>
      <trkpt lat="49.30369" lon="-0.43699">
        <ele>45.67509386885</ele>
        <time>2022-02-04T09:22:44.528Z</time>
      </trkpt>
      <trkpt lat="49.30372" lon="-0.43716">
        <ele>45.50594738541</ele>
        <time>2022-02-04T09:22:47.507Z</time>
      </trkpt>
      <trkpt lat="49.30371" lon="-0.43733">
        <ele>45.28275533496</ele>
        <time>2022-02-04T09:22:50.488Z</time>
      </trkpt>
      <trkpt lat="49.30365" lon="-0.43747">
        <ele>45.02076065333</ele>
        <time>2022-02-04T09:22:53.471Z</time>
      </trkpt>
      <trkpt lat="49.30353" lon="-0.43758">
        <ele>44.73267618572</ele>
        <time>2022-02-04T09:22:56.456Z</time>
      </trkpt>
      <trkpt lat="49.30348" lon="-0.43767">
        <ele>44.46509149704</ele>
        <time>2022-02-04T09:22:59.442Z</time>
      </trkpt>
      <trkpt lat="49.30343" lon="-0.43784">
        <ele>44.23680114084</ele>
        <time>2022-02-04T09:23:02.430Z</time>
      </trkpt>
      <trkpt lat="49.30339" lon="-0.43835">
        <ele>44.06375529474</ele>
        <time>2022-02-04T09:23:05.423Z</time>
      </trkpt>
      <trkpt lat="49.30334" lon="-0.43914">
        <ele>43.89979068193</ele>
        <time>2022-02-04T09:23:08.425Z</time>
      </trkpt>
      <trkpt lat="49.30334" lon="-0.43914">
        <ele>44.04265840341</ele>
        <time>2022-02-04T09:23:11.427Z</time>
      </trkpt>
      <trkpt lat="49.30334" lon="-0.43914">
        <ele>44.38878842789</ele>
        <time>2022-02-04T09:23:14.429Z</time>
      </trkpt>
      <trkpt lat="49.30334" lon="-0.43914">
        <ele>44.95364242971</ele>
        <time>2022-02-04T09:23:17.431Z</time>
      </trkpt>
      <trkpt lat="49.30334" lon="-0.43925">
        <ele>45.73279292351</ele>
        <time>2022-02-04T09:23:20.434Z</time>
      </trkpt>
      <trkpt lat="49.30325" lon="-0.44053">
        <ele>46.69241027427</ele>
        <time>2022-02-04T09:23:23.450Z</time>
      </trkpt>
      <trkpt lat="49.30319" lon="-0.44137">
        <ele>47.86975080432</ele>
        <time>2022-02-04T09:23:26.475Z</time>
      </trkpt>
      <trkpt lat="49.30301" lon="-0.44268">
        <ele>49.21850651828</ele>
        <time>2022-02-04T09:23:29.514Z</time>
      </trkpt>
      <trkpt lat="49.30232" lon="-0.44795">
        <ele>50.71120257565</ele>
        <time>2022-02-04T09:23:32.609Z</time>
      </trkpt>
      <trkpt lat="49.30226" lon="-0.44917">
        <ele>51.71545694763</ele>
        <time>2022-02-04T09:23:35.717Z</time>
      </trkpt>
      <trkpt lat="49.30226" lon="-0.44948">
        <ele>52.40706432673</ele>
        <time>2022-02-04T09:23:38.829Z</time>
      </trkpt>
      <trkpt lat="49.30226" lon="-0.45026">
        <ele>52.73921801376</ele>
        <time>2022-02-04T09:23:41.949Z</time>
      </trkpt>
      <trkpt lat="49.30224" lon="-0.45143">
        <ele>52.66170137616</ele>
        <time>2022-02-04T09:23:45.081Z</time>
      </trkpt>
      <trkpt lat="49.30208" lon="-0.45455">
        <ele>51.92075320379</ele>
        <time>2022-02-04T09:23:48.246Z</time>
      </trkpt>
      <trkpt lat="49.30208" lon="-0.45455">
        <ele>50.95463674484</ele>
        <time>2022-02-04T09:23:51.411Z</time>
      </trkpt>
      <trkpt lat="49.30206" lon="-0.4554">
        <ele>49.41187394081</ele>
        <time>2022-02-04T09:23:54.585Z</time>
      </trkpt>
      <trkpt lat="49.30207" lon="-0.45627">
        <ele>47.60582550489</ele>
        <time>2022-02-04T09:23:57.768Z</time>
      </trkpt>
      <trkpt lat="49.3021" lon="-0.45705">
        <ele>45.35395098984</ele>
        <time>2022-02-04T09:24:00.959Z</time>
      </trkpt>
      <trkpt lat="49.30218" lon="-0.4582">
        <ele>42.6035883111</ele>
        <time>2022-02-04T09:24:04.162Z</time>
      </trkpt>
      <trkpt lat="49.30218" lon="-0.4582">
        <ele>40.0635658572</ele>
        <time>2022-02-04T09:24:07.365Z</time>
      </trkpt>
      <trkpt lat="49.3022" lon="-0.45853">
        <ele>37.28862370588</ele>
        <time>2022-02-04T09:24:10.571Z</time>
      </trkpt>
      <trkpt lat="49.30222" lon="-0.45908">
        <ele>34.41063541967</ele>
        <time>2022-02-04T09:24:13.783Z</time>
      </trkpt>
      <trkpt lat="49.30222" lon="-0.45945">
        <ele>31.6209764767</ele>
        <time>2022-02-04T09:24:16.999Z</time>
      </trkpt>
      <trkpt lat="49.30218" lon="-0.45981">
        <ele>28.83494746372</ele>
        <time>2022-02-04T09:24:20.219Z</time>
      </trkpt>
      <trkpt lat="49.30213" lon="-0.46004">
        <ele>26.20315175974</ele>
        <time>2022-02-04T09:24:23.441Z</time>
      </trkpt>
      <trkpt lat="49.30207" lon="-0.4603">
        <ele>23.67641546532</ele>
        <time>2022-02-04T09:24:26.666Z</time>
      </trkpt>
      <trkpt lat="49.302" lon="-0.46046">
        <ele>21.40150494523</ele>
        <time>2022-02-04T09:24:29.893Z</time>
      </trkpt>
      <trkpt lat="49.30151" lon="-0.46148">
        <ele>19.10605609313</ele>
        <time>2022-02-04T09:24:33.134Z</time>
      </trkpt>
      <trkpt lat="49.30139" lon="-0.46181">
        <ele>17.31867810564</ele>
        <time>2022-02-04T09:24:36.379Z</time>
      </trkpt>
      <trkpt lat="49.30136" lon="-0.46217">
        <ele>15.77056003317</ele>
        <time>2022-02-04T09:24:39.627Z</time>
      </trkpt>
      <trkpt lat="49.3014" lon="-0.46273">
        <ele>14.39771964276</ele>
        <time>2022-02-04T09:24:42.881Z</time>
      </trkpt>
      <trkpt lat="49.30143" lon="-0.46285">
        <ele>13.40250426626</ele>
        <time>2022-02-04T09:24:46.137Z</time>
      </trkpt>
      <trkpt lat="49.30143" lon="-0.46285">
        <ele>12.67507943249</ele>
        <time>2022-02-04T09:24:49.393Z</time>
      </trkpt>
      <trkpt lat="49.30143" lon="-0.46285">
        <ele>12.15724152165</ele>
        <time>2022-02-04T09:24:52.649Z</time>
      </trkpt>
      <trkpt lat="49.30143" lon="-0.46285">
        <ele>11.81319695556</ele>
        <time>2022-02-04T09:24:55.905Z</time>
      </trkpt>
      <trkpt lat="49.30149" lon="-0.46285">
        <ele>11.57624194304</ele>
        <time>2022-02-04T09:24:59.162Z</time>
      </trkpt>
      <trkpt lat="49.30151" lon="-0.46291">
        <ele>11.44847455789</ele>
        <time>2022-02-04T09:25:02.419Z</time>
      </trkpt>
      <trkpt lat="49.30152" lon="-0.46297">
        <ele>11.39710405228</ele>
        <time>2022-02-04T09:25:05.677Z</time>
      </trkpt>
      <trkpt lat="49.3015" lon="-0.46304">
        <ele>11.41061828041</ele>
        <time>2022-02-04T09:25:08.936Z</time>
      </trkpt>
      <trkpt lat="49.30144" lon="-0.46305">
        <ele>11.48650250076</ele>
        <time>2022-02-04T09:25:12.196Z</time>
      </trkpt>
      <trkpt lat="49.30143" lon="-0.46324">
        <ele>11.47567113049</ele>
        <time>2022-02-04T09:25:15.458Z</time>
      </trkpt>
      <trkpt lat="49.30146" lon="-0.46349">
        <ele>11.53090867298</ele>
        <time>2022-02-04T09:25:18.722Z</time>
      </trkpt>
      <trkpt lat="49.30152" lon="-0.46376">
        <ele>11.61028147887</ele>
        <time>2022-02-04T09:25:21.990Z</time>
      </trkpt>
      <trkpt lat="49.30154" lon="-0.46387">
        <ele>11.70953242656</ele>
        <time>2022-02-04T09:25:25.259Z</time>
      </trkpt>
      <trkpt lat="49.30159" lon="-0.4641">
        <ele>11.85235586189</ele>
        <time>2022-02-04T09:25:28.530Z</time>
      </trkpt>
      <trkpt lat="49.3016" lon="-0.46418">
        <ele>11.97165538558</ele>
        <time>2022-02-04T09:25:31.802Z</time>
      </trkpt>
      <trkpt lat="49.30159" lon="-0.46429">
        <ele>12.06484857531</ele>
        <time>2022-02-04T09:25:35.075Z</time>
      </trkpt>
      <trkpt lat="49.30156" lon="-0.46448">
        <ele>12.13682052186</ele>
        <time>2022-02-04T09:25:38.350Z</time>
      </trkpt>
      <trkpt lat="49.30145" lon="-0.46512">
        <ele>12.20817807289</ele>
        <time>2022-02-04T09:25:41.632Z</time>
      </trkpt>
      <trkpt lat="49.30142" lon="-0.46529">
        <ele>12.23159836757</ele>
        <time>2022-02-04T09:25:44.916Z</time>
      </trkpt>
      <trkpt lat="49.30143" lon="-0.4654">
        <ele>12.19737059226</ele>
        <time>2022-02-04T09:25:48.201Z</time>
      </trkpt>
      <trkpt lat="49.3014" lon="-0.46551">
        <ele>12.13110806267</ele>
        <time>2022-02-04T09:25:51.487Z</time>
      </trkpt>
      <trkpt lat="49.30136" lon="-0.46559">
        <ele>12.03596988141</ele>
        <time>2022-02-04T09:25:54.775Z</time>
      </trkpt>
      <trkpt lat="49.30134" lon="-0.46569">
        <ele>11.91275694963</ele>
        <time>2022-02-04T09:25:58.064Z</time>
      </trkpt>
      <trkpt lat="49.30132" lon="-0.46619">
        <ele>11.76278840727</ele>
        <time>2022-02-04T09:26:01.358Z</time>
      </trkpt>
      <trkpt lat="49.30131" lon="-0.46653">
        <ele>11.59747847601</ele>
        <time>2022-02-04T09:26:04.655Z</time>
      </trkpt>
      <trkpt lat="49.30132" lon="-0.46668">
        <ele>11.51803311827</ele>
        <time>2022-02-04T09:26:07.954Z</time>
      </trkpt>
      <trkpt lat="49.30145" lon="-0.46759">
        <ele>11.4285372341</ele>
        <time>2022-02-04T09:26:11.263Z</time>
      </trkpt>
      <trkpt lat="49.30149" lon="-0.46788">
        <ele>11.47836056204</ele>
        <time>2022-02-04T09:26:14.575Z</time>
      </trkpt>
      <trkpt lat="49.30149" lon="-0.46815">
        <ele>11.71466800829</ele>
        <time>2022-02-04T09:26:17.890Z</time>
      </trkpt>
      <trkpt lat="49.30139" lon="-0.46881">
        <ele>12.11590976282</ele>
        <time>2022-02-04T09:26:21.212Z</time>
      </trkpt>
      <trkpt lat="49.30128" lon="-0.4693">
        <ele>12.62130305055</ele>
        <time>2022-02-04T09:26:24.539Z</time>
      </trkpt>
      <trkpt lat="49.30132" lon="-0.4695">
        <ele>13.10593530226</ele>
        <time>2022-02-04T09:26:27.869Z</time>
      </trkpt>
      <trkpt lat="49.30132" lon="-0.46959">
        <ele>13.65346277983</ele>
        <time>2022-02-04T09:26:31.199Z</time>
      </trkpt>
      <trkpt lat="49.3013" lon="-0.46968">
        <ele>14.22067878587</ele>
        <time>2022-02-04T09:26:34.530Z</time>
      </trkpt>
      <trkpt lat="49.30113" lon="-0.46999">
        <ele>14.77992030015</ele>
        <time>2022-02-04T09:26:37.866Z</time>
      </trkpt>
      <trkpt lat="49.30104" lon="-0.47062">
        <ele>15.32564698305</ele>
        <time>2022-02-04T09:26:41.208Z</time>
      </trkpt>
      <trkpt lat="49.301" lon="-0.47403">
        <ele>16.10347641327</ele>
        <time>2022-02-04T09:26:44.586Z</time>
      </trkpt>
      <trkpt lat="49.30094" lon="-0.47464">
        <ele>15.96257530863</ele>
        <time>2022-02-04T09:26:47.971Z</time>
      </trkpt>
      <trkpt lat="49.30084" lon="-0.47523">
        <ele>15.4208975376</ele>
        <time>2022-02-04T09:26:51.362Z</time>
      </trkpt>
      <trkpt lat="49.3008" lon="-0.47532">
        <ele>14.76114648498</ele>
        <time>2022-02-04T09:26:54.754Z</time>
      </trkpt>
      <trkpt lat="49.3008" lon="-0.47532">
        <ele>13.86588562393</ele>
        <time>2022-02-04T09:26:58.146Z</time>
      </trkpt>
      <trkpt lat="49.30064" lon="-0.4758">
        <ele>12.58188519802</ele>
        <time>2022-02-04T09:27:01.544Z</time>
      </trkpt>
      <trkpt lat="49.30034" lon="-0.47644">
        <ele>11.2940660443</ele>
        <time>2022-02-04T09:27:04.950Z</time>
      </trkpt>
      <trkpt lat="49.30013" lon="-0.47695">
        <ele>9.89551514208</ele>
        <time>2022-02-04T09:27:08.362Z</time>
      </trkpt>
      <trkpt lat="49.30009" lon="-0.47742">
        <ele>8.60906698217</ele>
        <time>2022-02-04T09:27:11.779Z</time>
      </trkpt>
      <trkpt lat="49.30007" lon="-0.47758">
        <ele>7.62191087171</ele>
        <time>2022-02-04T09:27:15.198Z</time>
      </trkpt>
      <trkpt lat="49.30009" lon="-0.4781">
        <ele>6.88295293878</ele>
        <time>2022-02-04T09:27:18.622Z</time>
      </trkpt>
      <trkpt lat="49.30013" lon="-0.47858">
        <ele>6.57102020498</ele>
        <time>2022-02-04T09:27:22.052Z</time>
      </trkpt>
      <trkpt lat="49.30016" lon="-0.47892">
        <ele>6.66354686847</ele>
        <time>2022-02-04T09:27:25.485Z</time>
      </trkpt>
      <trkpt lat="49.30019" lon="-0.47914">
        <ele>7.11322333759</ele>
        <time>2022-02-04T09:27:28.920Z</time>
      </trkpt>
      <trkpt lat="49.30018" lon="-0.47929">
        <ele>7.97127607418</ele>
        <time>2022-02-04T09:27:32.357Z</time>
      </trkpt>
      <trkpt lat="49.30012" lon="-0.47954">
        <ele>9.21939996772</ele>
        <time>2022-02-04T09:27:35.797Z</time>
      </trkpt>
      <trkpt lat="49.29984" lon="-0.48037">
        <ele>10.95746466115</ele>
        <time>2022-02-04T09:27:39.247Z</time>
      </trkpt>
      <trkpt lat="49.2997" lon="-0.48103">
        <ele>13.08333885225</ele>
        <time>2022-02-04T09:27:42.704Z</time>
      </trkpt>
      <trkpt lat="49.29958" lon="-0.48163">
        <ele>15.33765703993</ele>
        <time>2022-02-04T09:27:46.167Z</time>
      </trkpt>
      <trkpt lat="49.29936" lon="-0.4825">
        <ele>17.71185638119</ele>
        <time>2022-02-04T09:27:49.640Z</time>
      </trkpt>
      <trkpt lat="49.29909" lon="-0.48411">
        <ele>20.58463013444</ele>
        <time>2022-02-04T09:27:53.131Z</time>
      </trkpt>
      <trkpt lat="49.29906" lon="-0.48475">
        <ele>23.09448467523</ele>
        <time>2022-02-04T09:27:56.628Z</time>
      </trkpt>
      <trkpt lat="49.29902" lon="-0.48584">
        <ele>25.47602697388</ele>
        <time>2022-02-04T09:28:00.137Z</time>
      </trkpt>
      <trkpt lat="49.29888" lon="-0.48661">
        <ele>27.49348940579</ele>
        <time>2022-02-04T09:28:03.654Z</time>
      </trkpt>
      <trkpt lat="49.29855" lon="-0.48826">
        <ele>29.2410721975</ele>
        <time>2022-02-04T09:28:07.189Z</time>
      </trkpt>
      <trkpt lat="49.29837" lon="-0.48966">
        <ele>30.77362274242</ele>
        <time>2022-02-04T09:28:10.739Z</time>
      </trkpt>
      <trkpt lat="49.29825" lon="-0.49007">
        <ele>32.16062639468</ele>
        <time>2022-02-04T09:28:14.294Z</time>
      </trkpt>
      <trkpt lat="49.29774" lon="-0.49108">
        <ele>33.42744469505</ele>
        <time>2022-02-04T09:28:17.862Z</time>
      </trkpt>
      <trkpt lat="49.29742" lon="-0.49206">
        <ele>34.43742750841</ele>
        <time>2022-02-04T09:28:21.442Z</time>
      </trkpt>
      <trkpt lat="49.29726" lon="-0.49302">
        <ele>35.32853337468</ele>
        <time>2022-02-04T09:28:25.032Z</time>
      </trkpt>
      <trkpt lat="49.2972" lon="-0.49406">
        <ele>36.19787759124</ele>
        <time>2022-02-04T09:28:28.633Z</time>
      </trkpt>
      <trkpt lat="49.2972" lon="-0.49503">
        <ele>36.94336870301</ele>
        <time>2022-02-04T09:28:32.244Z</time>
      </trkpt>
      <trkpt lat="49.29735" lon="-0.49771">
        <ele>37.38499636779</ele>
        <time>2022-02-04T09:28:35.883Z</time>
      </trkpt>
      <trkpt lat="49.29736" lon="-0.4997">
        <ele>37.67523269698</ele>
        <time>2022-02-04T09:28:39.543Z</time>
      </trkpt>
      <trkpt lat="49.29734" lon="-0.50005">
        <ele>38.04647669111</ele>
        <time>2022-02-04T09:28:43.207Z</time>
      </trkpt>
      <trkpt lat="49.29719" lon="-0.5009">
        <ele>38.40426848251</ele>
        <time>2022-02-04T09:28:46.880Z</time>
      </trkpt>
      <trkpt lat="49.29719" lon="-0.5009">
        <ele>38.54075862917</ele>
        <time>2022-02-04T09:28:50.553Z</time>
      </trkpt>
      <trkpt lat="49.29713" lon="-0.50115">
        <ele>38.59029620134</ele>
        <time>2022-02-04T09:28:54.229Z</time>
      </trkpt>
      <trkpt lat="49.29709" lon="-0.50223">
        <ele>38.61360981679</ele>
        <time>2022-02-04T09:28:57.916Z</time>
      </trkpt>
      <trkpt lat="49.29712" lon="-0.50304">
        <ele>38.13306789637</ele>
        <time>2022-02-04T09:29:01.612Z</time>
      </trkpt>
      <trkpt lat="49.29709" lon="-0.50352">
        <ele>37.54975134426</ele>
        <time>2022-02-04T09:29:05.313Z</time>
      </trkpt>
      <trkpt lat="49.29692" lon="-0.50476">
        <ele>36.83962879908</ele>
        <time>2022-02-04T09:29:09.027Z</time>
      </trkpt>
      <trkpt lat="49.29688" lon="-0.50658">
        <ele>35.94771071707</ele>
        <time>2022-02-04T09:29:12.760Z</time>
      </trkpt>
      <trkpt lat="49.29682" lon="-0.5081">
        <ele>34.63887264359</ele>
        <time>2022-02-04T09:29:16.509Z</time>
      </trkpt>
      <trkpt lat="49.29662" lon="-0.50928">
        <ele>33.0666257295</ele>
        <time>2022-02-04T09:29:20.271Z</time>
      </trkpt>
      <trkpt lat="49.29655" lon="-0.50985">
        <ele>31.8637854441</ele>
        <time>2022-02-04T09:29:24.039Z</time>
      </trkpt>
      <trkpt lat="49.29654" lon="-0.50986">
        <ele>30.68824541765</ele>
        <time>2022-02-04T09:29:27.807Z</time>
      </trkpt>
      <trkpt lat="49.29654" lon="-0.50986">
        <ele>29.60472282408</ele>
        <time>2022-02-04T09:29:31.575Z</time>
      </trkpt>
      <trkpt lat="49.29653" lon="-0.50994">
        <ele>28.66439987447</ele>
        <time>2022-02-04T09:29:35.344Z</time>
      </trkpt>
      <trkpt lat="49.29648" lon="-0.5106">
        <ele>27.75865893741</ele>
        <time>2022-02-04T09:29:39.120Z</time>
      </trkpt>
      <trkpt lat="49.29641" lon="-0.51137">
        <ele>27.08972571241</ele>
        <time>2022-02-04T09:29:42.904Z</time>
      </trkpt>
      <trkpt lat="49.29629" lon="-0.51213">
        <ele>26.63733020302</ele>
        <time>2022-02-04T09:29:46.696Z</time>
      </trkpt>
      <trkpt lat="49.29619" lon="-0.5126">
        <ele>26.37755411328</ele>
        <time>2022-02-04T09:29:50.493Z</time>
      </trkpt>
      <trkpt lat="49.29599" lon="-0.51464">
        <ele>26.6521257316</ele>
        <time>2022-02-04T09:29:54.312Z</time>
      </trkpt>
      <trkpt lat="49.29599" lon="-0.51464">
        <ele>26.97596980643</ele>
        <time>2022-02-04T09:29:58.131Z</time>
      </trkpt>
      <trkpt lat="49.29584" lon="-0.51607">
        <ele>27.62335649416</ele>
        <time>2022-02-04T09:30:01.965Z</time>
      </trkpt>
      <trkpt lat="49.29583" lon="-0.51803">
        <ele>28.29069425587</ele>
        <time>2022-02-04T09:30:05.820Z</time>
      </trkpt>
      <trkpt lat="49.29548" lon="-0.52105">
        <ele>29.03167873005</ele>
        <time>2022-02-04T09:30:09.707Z</time>
      </trkpt>
      <trkpt lat="49.29548" lon="-0.52105">
        <ele>29.68477147078</ele>
        <time>2022-02-04T09:30:13.594Z</time>
      </trkpt>
      <trkpt lat="49.29504" lon="-0.52527">
        <ele>30.21987753972</ele>
        <time>2022-02-04T09:30:17.526Z</time>
      </trkpt>
      <trkpt lat="49.29504" lon="-0.52527">
        <ele>30.77454190421</ele>
        <time>2022-02-04T09:30:21.458Z</time>
      </trkpt>
      <trkpt lat="49.29487" lon="-0.52683">
        <ele>31.31109456234</ele>
        <time>2022-02-04T09:30:25.406Z</time>
      </trkpt>
      <trkpt lat="49.2949" lon="-0.52715">
        <ele>31.73362658916</ele>
        <time>2022-02-04T09:30:29.358Z</time>
      </trkpt>
      <trkpt lat="49.29498" lon="-0.52715">
        <ele>32.00114215259</ele>
        <time>2022-02-04T09:30:33.311Z</time>
      </trkpt>
      <trkpt lat="49.29501" lon="-0.52717">
        <ele>32.15242558904</ele>
        <time>2022-02-04T09:30:37.264Z</time>
      </trkpt>
      <trkpt lat="49.29505" lon="-0.52727">
        <ele>32.21504919396</ele>
        <time>2022-02-04T09:30:41.219Z</time>
      </trkpt>
      <trkpt lat="49.29505" lon="-0.52739">
        <ele>32.16207720706</ele>
        <time>2022-02-04T09:30:45.175Z</time>
      </trkpt>
      <trkpt lat="49.29502" lon="-0.52747">
        <ele>31.98797472707</ele>
        <time>2022-02-04T09:30:49.132Z</time>
      </trkpt>
      <trkpt lat="49.29495" lon="-0.52752">
        <ele>31.73923105496</ele>
        <time>2022-02-04T09:30:53.090Z</time>
      </trkpt>
      <trkpt lat="49.29488" lon="-0.52748">
        <ele>31.42763332983</ele>
        <time>2022-02-04T09:30:57.049Z</time>
      </trkpt>
      <trkpt lat="49.29477" lon="-0.52777">
        <ele>31.14196902865</ele>
        <time>2022-02-04T09:31:01.012Z</time>
      </trkpt>
      <trkpt lat="49.29472" lon="-0.52815">
        <ele>30.83550606492</ele>
        <time>2022-02-04T09:31:04.979Z</time>
      </trkpt>
      <trkpt lat="49.29441" lon="-0.53121">
        <ele>30.81099724825</ele>
        <time>2022-02-04T09:31:08.978Z</time>
      </trkpt>
      <trkpt lat="49.29432" lon="-0.53187">
        <ele>30.85484501319</ele>
        <time>2022-02-04T09:31:12.984Z</time>
      </trkpt>
      <trkpt lat="49.29429" lon="-0.53235">
        <ele>31.08069640317</ele>
        <time>2022-02-04T09:31:16.995Z</time>
      </trkpt>
      <trkpt lat="49.29425" lon="-0.53363">
        <ele>31.47707032607</ele>
        <time>2022-02-04T09:31:21.020Z</time>
      </trkpt>
      <trkpt lat="49.29422" lon="-0.53452">
        <ele>32.3990800243</ele>
        <time>2022-02-04T09:31:25.054Z</time>
      </trkpt>
      <trkpt lat="49.29418" lon="-0.53563">
        <ele>33.63457611431</ele>
        <time>2022-02-04T09:31:29.100Z</time>
      </trkpt>
      <trkpt lat="49.2933" lon="-0.54343">
        <ele>35.32471546534</ele>
        <time>2022-02-04T09:31:33.229Z</time>
      </trkpt>
      <trkpt lat="49.29347" lon="-0.54349">
        <ele>37.23983829781</ele>
        <time>2022-02-04T09:31:37.360Z</time>
      </trkpt>
      <trkpt lat="49.29381" lon="-0.54383">
        <ele>39.49603064757</ele>
        <time>2022-02-04T09:31:41.498Z</time>
      </trkpt>
      <trkpt lat="49.29523" lon="-0.54461">
        <ele>42.1362685851</ele>
        <time>2022-02-04T09:31:45.660Z</time>
      </trkpt>
      <trkpt lat="49.29678" lon="-0.54541">
        <ele>45.16229986573</ele>
        <time>2022-02-04T09:31:49.848Z</time>
      </trkpt>
      <trkpt lat="49.29804" lon="-0.54593">
        <ele>48.24298430282</ele>
        <time>2022-02-04T09:31:54.057Z</time>
      </trkpt>
      <trkpt lat="49.30382" lon="-0.54746">
        <ele>51.59520669736</ele>
        <time>2022-02-04T09:31:58.360Z</time>
      </trkpt>
      <trkpt lat="49.30382" lon="-0.54746">
        <ele>54.00833098318</ele>
        <time>2022-02-04T09:32:02.663Z</time>
      </trkpt>
      <trkpt lat="49.30525" lon="-0.54785">
        <ele>55.99389390009</ele>
        <time>2022-02-04T09:32:06.989Z</time>
      </trkpt>
      <trkpt lat="49.30525" lon="-0.54785">
        <ele>57.59654984623</ele>
        <time>2022-02-04T09:32:11.315Z</time>
      </trkpt>
      <trkpt lat="49.30539" lon="-0.54789">
        <ele>58.76269219926</ele>
        <time>2022-02-04T09:32:15.644Z</time>
      </trkpt>
      <trkpt lat="49.30583" lon="-0.548">
        <ele>59.51912077968</ele>
        <time>2022-02-04T09:32:19.980Z</time>
      </trkpt>
      <trkpt lat="49.30619" lon="-0.54796">
        <ele>59.77922177215</ele>
        <time>2022-02-04T09:32:24.322Z</time>
      </trkpt>
      <trkpt lat="49.30722" lon="-0.54765">
        <ele>59.73110652916</ele>
        <time>2022-02-04T09:32:28.680Z</time>
      </trkpt>
      <trkpt lat="49.3088" lon="-0.54716">
        <ele>59.36522083316</ele>
        <time>2022-02-04T09:32:33.064Z</time>
      </trkpt>
      <trkpt lat="49.30917" lon="-0.54706">
        <ele>58.85613425526</ele>
        <time>2022-02-04T09:32:37.454Z</time>
      </trkpt>
      <trkpt lat="49.30973" lon="-0.54697">
        <ele>58.24699916429</ele>
        <time>2022-02-04T09:32:41.853Z</time>
      </trkpt>
      <trkpt lat="49.30973" lon="-0.54697">
        <ele>57.55523964199</ele>
        <time>2022-02-04T09:32:46.252Z</time>
      </trkpt>
      <trkpt lat="49.31018" lon="-0.54689">
        <ele>56.76828185944</ele>
        <time>2022-02-04T09:32:50.658Z</time>
      </trkpt>
      <trkpt lat="49.31075" lon="-0.54688">
        <ele>56.07021538627</ele>
        <time>2022-02-04T09:32:55.074Z</time>
      </trkpt>
      <trkpt lat="49.31111" lon="-0.54693">
        <ele>55.3155651118</ele>
        <time>2022-02-04T09:32:59.495Z</time>
      </trkpt>
      <trkpt lat="49.31134" lon="-0.54702">
        <ele>54.5116152748</ele>
        <time>2022-02-04T09:33:03.920Z</time>
      </trkpt>
      <trkpt lat="49.31147" lon="-0.54716">
        <ele>53.75171571492</ele>
        <time>2022-02-04T09:33:08.348Z</time>
      </trkpt>
      <trkpt lat="49.31152" lon="-0.54722">
        <ele>53.06734241517</ele>
        <time>2022-02-04T09:33:12.777Z</time>
      </trkpt>
      <trkpt lat="49.3116" lon="-0.54735">
        <ele>52.41216201236</ele>
        <time>2022-02-04T09:33:17.208Z</time>
      </trkpt>
      <trkpt lat="49.3116" lon="-0.54735">
        <ele>51.7833551178</ele>
        <time>2022-02-04T09:33:21.639Z</time>
      </trkpt>
      <trkpt lat="49.31177" lon="-0.54766">
        <ele>51.14571239152</ele>
        <time>2022-02-04T09:33:26.074Z</time>
      </trkpt>
      <trkpt lat="49.31199" lon="-0.548">
        <ele>50.46823415108</ele>
        <time>2022-02-04T09:33:30.514Z</time>
      </trkpt>
      <trkpt lat="49.31231" lon="-0.54831">
        <ele>49.94554061944</ele>
        <time>2022-02-04T09:33:34.960Z</time>
      </trkpt>
      <trkpt lat="49.3128" lon="-0.5486">
        <ele>49.52393307607</ele>
        <time>2022-02-04T09:33:39.414Z</time>
      </trkpt>
      <trkpt lat="49.31325" lon="-0.54882">
        <ele>48.96021961166</ele>
        <time>2022-02-04T09:33:43.876Z</time>
      </trkpt>
      <trkpt lat="49.31426" lon="-0.54927">
        <ele>48.57990469197</ele>
        <time>2022-02-04T09:33:48.355Z</time>
      </trkpt>
      <trkpt lat="49.3145" lon="-0.5494">
        <ele>48.30950593383</ele>
        <time>2022-02-04T09:33:52.838Z</time>
      </trkpt>
      <trkpt lat="49.31482" lon="-0.54961">
        <ele>48.22889435703</ele>
        <time>2022-02-04T09:33:57.326Z</time>
      </trkpt>
      <trkpt lat="49.31501" lon="-0.5497">
        <ele>48.33815928199</ele>
        <time>2022-02-04T09:34:01.818Z</time>
      </trkpt>
      <trkpt lat="49.31546" lon="-0.54998">
        <ele>48.48722978732</ele>
        <time>2022-02-04T09:34:06.317Z</time>
      </trkpt>
      <trkpt lat="49.31559" lon="-0.55012">
        <ele>48.73290250965</ele>
        <time>2022-02-04T09:34:10.819Z</time>
      </trkpt>
      <trkpt lat="49.31577" lon="-0.55041">
        <ele>49.01841810219</ele>
        <time>2022-02-04T09:34:15.325Z</time>
      </trkpt>
      <trkpt lat="49.31603" lon="-0.55088">
        <ele>49.43715119462</ele>
        <time>2022-02-04T09:34:19.838Z</time>
      </trkpt>
      <trkpt lat="49.31638" lon="-0.55158">
        <ele>49.81050013488</ele>
        <time>2022-02-04T09:34:24.360Z</time>
      </trkpt>
      <trkpt lat="49.31658" lon="-0.55199">
        <ele>50.2557083593</ele>
        <time>2022-02-04T09:34:28.887Z</time>
      </trkpt>
      <trkpt lat="49.3167" lon="-0.55222">
        <ele>50.67855762624</ele>
        <time>2022-02-04T09:34:33.417Z</time>
      </trkpt>
      <trkpt lat="49.31693" lon="-0.55238">
        <ele>50.99780638567</ele>
        <time>2022-02-04T09:34:37.951Z</time>
      </trkpt>
      <trkpt lat="49.31711" lon="-0.55248">
        <ele>51.27177390184</ele>
        <time>2022-02-04T09:34:42.488Z</time>
      </trkpt>
      <trkpt lat="49.31735" lon="-0.5525">
        <ele>51.45800028132</ele>
        <time>2022-02-04T09:34:47.029Z</time>
      </trkpt>
      <trkpt lat="49.31749" lon="-0.55248">
        <ele>51.6034862281</ele>
        <time>2022-02-04T09:34:51.572Z</time>
      </trkpt>
      <trkpt lat="49.31766" lon="-0.55236">
        <ele>51.71053996195</ele>
        <time>2022-02-04T09:34:56.118Z</time>
      </trkpt>
      <trkpt lat="49.3179" lon="-0.55215">
        <ele>51.801081057</ele>
        <time>2022-02-04T09:35:00.669Z</time>
      </trkpt>
      <trkpt lat="49.31809" lon="-0.55203">
        <ele>51.90696856327</ele>
        <time>2022-02-04T09:35:05.223Z</time>
      </trkpt>
      <trkpt lat="49.31806" lon="-0.5519">
        <ele>51.90339823542</ele>
        <time>2022-02-04T09:35:09.779Z</time>
      </trkpt>
      <trkpt lat="49.31808" lon="-0.55177">
        <ele>51.92603193235</ele>
        <time>2022-02-04T09:35:14.336Z</time>
      </trkpt>
      <trkpt lat="49.31811" lon="-0.55173">
        <ele>51.87407961625</ele>
        <time>2022-02-04T09:35:18.894Z</time>
      </trkpt>
      <trkpt lat="49.3182" lon="-0.5517">
        <ele>51.74594913822</ele>
        <time>2022-02-04T09:35:23.453Z</time>
      </trkpt>
      <trkpt lat="49.31832" lon="-0.55128">
        <ele>51.53975978633</ele>
        <time>2022-02-04T09:35:28.017Z</time>
      </trkpt>
      <trkpt lat="49.31875" lon="-0.55051">
        <ele>51.24366794572</ele>
        <time>2022-02-04T09:35:32.591Z</time>
      </trkpt>
      <trkpt lat="49.31908" lon="-0.54956">
        <ele>50.56746898225</ele>
        <time>2022-02-04T09:35:37.177Z</time>
      </trkpt>
      <trkpt lat="49.3193" lon="-0.54798">
        <ele>49.99132274802</ele>
        <time>2022-02-04T09:35:41.780Z</time>
      </trkpt>
      <trkpt lat="49.3193" lon="-0.54798">
        <ele>49.28868869589</ele>
        <time>2022-02-04T09:35:46.383Z</time>
      </trkpt>
      <trkpt lat="49.3194" lon="-0.54764">
        <ele>48.42632526471</ele>
        <time>2022-02-04T09:35:50.989Z</time>
      </trkpt>
      <trkpt lat="49.31954" lon="-0.54742">
        <ele>47.49690245016</ele>
        <time>2022-02-04T09:35:55.599Z</time>
      </trkpt>
      <trkpt lat="49.32146" lon="-0.54443">
        <ele>46.46476576413</ele>
        <time>2022-02-04T09:36:00.253Z</time>
      </trkpt>
      <trkpt lat="49.32328" lon="-0.5421">
        <ele>45.08537613405</ele>
        <time>2022-02-04T09:36:04.945Z</time>
      </trkpt>
      <trkpt lat="49.32371" lon="-0.54111">
        <ele>43.85792718014</ele>
        <time>2022-02-04T09:36:09.649Z</time>
      </trkpt>
      <trkpt lat="49.3244" lon="-0.53905">
        <ele>42.35982646582</ele>
        <time>2022-02-04T09:36:14.377Z</time>
      </trkpt>
      <trkpt lat="49.32462" lon="-0.53856">
        <ele>41.23177070882</ele>
        <time>2022-02-04T09:36:19.112Z</time>
      </trkpt>
      <trkpt lat="49.325" lon="-0.53798">
        <ele>40.22768202898</ele>
        <time>2022-02-04T09:36:23.855Z</time>
      </trkpt>
      <trkpt lat="49.32556" lon="-0.53742">
        <ele>39.09720217311</ele>
        <time>2022-02-04T09:36:28.609Z</time>
      </trkpt>
      <trkpt lat="49.32556" lon="-0.53742">
        <ele>38.17661135922</ele>
        <time>2022-02-04T09:36:33.363Z</time>
      </trkpt>
      <trkpt lat="49.32657" lon="-0.53637">
        <ele>37.28251970952</ele>
        <time>2022-02-04T09:36:38.136Z</time>
      </trkpt>
      <trkpt lat="49.32697" lon="-0.53582">
        <ele>36.50589869442</ele>
        <time>2022-02-04T09:36:42.918Z</time>
      </trkpt>
      <trkpt lat="49.32752" lon="-0.53494">
        <ele>35.76395590958</ele>
        <time>2022-02-04T09:36:47.713Z</time>
      </trkpt>
      <trkpt lat="49.32768" lon="-0.53476">
        <ele>35.2427934464</ele>
        <time>2022-02-04T09:36:52.511Z</time>
      </trkpt>
      <trkpt lat="49.32815" lon="-0.53437">
        <ele>34.89116116449</ele>
        <time>2022-02-04T09:36:57.318Z</time>
      </trkpt>
      <trkpt lat="49.32815" lon="-0.53437">
        <ele>34.53963649922</ele>
        <time>2022-02-04T09:37:02.125Z</time>
      </trkpt>
      <trkpt lat="49.32882" lon="-0.53344">
        <ele>34.24658840268</ele>
        <time>2022-02-04T09:37:06.946Z</time>
      </trkpt>
      <trkpt lat="49.32944" lon="-0.53285">
        <ele>33.99412948767</ele>
        <time>2022-02-04T09:37:11.779Z</time>
      </trkpt>
      <trkpt lat="49.32979" lon="-0.5323">
        <ele>33.66523296609</ele>
        <time>2022-02-04T09:37:16.620Z</time>
      </trkpt>
      <trkpt lat="49.32981" lon="-0.53224">
        <ele>33.49355575114</ele>
        <time>2022-02-04T09:37:21.462Z</time>
      </trkpt>
      <trkpt lat="49.32986" lon="-0.53212">
        <ele>33.3717105375</ele>
        <time>2022-02-04T09:37:26.305Z</time>
      </trkpt>
      <trkpt lat="49.32986" lon="-0.53199">
        <ele>33.30437544931</ele>
        <time>2022-02-04T09:37:31.149Z</time>
      </trkpt>
      <trkpt lat="49.32979" lon="-0.53147">
        <ele>33.26387675226</ele>
        <time>2022-02-04T09:37:35.999Z</time>
      </trkpt>
      <trkpt lat="49.32981" lon="-0.53136">
        <ele>33.40780589969</ele>
        <time>2022-02-04T09:37:40.850Z</time>
      </trkpt>
      <trkpt lat="49.33008" lon="-0.53094">
        <ele>33.78441414737</ele>
        <time>2022-02-04T09:37:45.707Z</time>
      </trkpt>
      <trkpt lat="49.33007" lon="-0.53091">
        <ele>34.01773426541</ele>
        <time>2022-02-04T09:37:50.565Z</time>
      </trkpt>
      <trkpt lat="49.33005" lon="-0.53067">
        <ele>34.28805653909</ele>
        <time>2022-02-04T09:37:55.425Z</time>
      </trkpt>
      <trkpt lat="49.33004" lon="-0.53041">
        <ele>34.54372763614</ele>
        <time>2022-02-04T09:38:00.288Z</time>
      </trkpt>
      <trkpt lat="49.33005" lon="-0.53034">
        <ele>34.70731113194</ele>
        <time>2022-02-04T09:38:05.152Z</time>
      </trkpt>
      <trkpt lat="49.33006" lon="-0.53029">
        <ele>34.81416762464</ele>
        <time>2022-02-04T09:38:10.016Z</time>
      </trkpt>
      <trkpt lat="49.33015" lon="-0.53025">
        <ele>34.86398568768</ele>
        <time>2022-02-04T09:38:14.881Z</time>
      </trkpt>
      <trkpt lat="49.33048" lon="-0.53022">
        <ele>34.86573800639</ele>
        <time>2022-02-04T09:38:19.752Z</time>
      </trkpt>
      <trkpt lat="49.33078" lon="-0.53014">
        <ele>34.77737679569</ele>
        <time>2022-02-04T09:38:24.628Z</time>
      </trkpt>
      <trkpt lat="49.33102" lon="-0.52995">
        <ele>34.69393799233</ele>
        <time>2022-02-04T09:38:29.508Z</time>
      </trkpt>
      <trkpt lat="49.33115" lon="-0.52977">
        <ele>34.66190821176</ele>
        <time>2022-02-04T09:38:34.391Z</time>
      </trkpt>
      <trkpt lat="49.33124" lon="-0.52968">
        <ele>34.7017461857</ele>
        <time>2022-02-04T09:38:39.276Z</time>
      </trkpt>
      <trkpt lat="49.33138" lon="-0.52965">
        <ele>34.80093082603</ele>
        <time>2022-02-04T09:38:44.163Z</time>
      </trkpt>
      <trkpt lat="49.3314" lon="-0.52953">
        <ele>35.02518617609</ele>
        <time>2022-02-04T09:38:49.051Z</time>
      </trkpt>
      <trkpt lat="49.33146" lon="-0.52903">
        <ele>35.40133909618</ele>
        <time>2022-02-04T09:38:53.944Z</time>
      </trkpt>
      <trkpt lat="49.3315" lon="-0.52884">
        <ele>35.7770053397</ele>
        <time>2022-02-04T09:38:58.840Z</time>
      </trkpt>
      <trkpt lat="49.33162" lon="-0.52862">
        <ele>36.19784725446</ele>
        <time>2022-02-04T09:39:03.739Z</time>
      </trkpt>
      <trkpt lat="49.33168" lon="-0.52857">
        <ele>36.54295502773</ele>
        <time>2022-02-04T09:39:08.639Z</time>
      </trkpt>
      <trkpt lat="49.33151" lon="-0.52716">
        <ele>36.84001988874</ele>
        <time>2022-02-04T09:39:13.554Z</time>
      </trkpt>
      <trkpt lat="49.33146" lon="-0.52681">
        <ele>37.19114337399</ele>
        <time>2022-02-04T09:39:18.472Z</time>
      </trkpt>
      <trkpt lat="49.33142" lon="-0.52651">
        <ele>37.39107982237</ele>
        <time>2022-02-04T09:39:23.394Z</time>
      </trkpt>
      <trkpt lat="49.3314" lon="-0.52581">
        <ele>37.43648974645</ele>
        <time>2022-02-04T09:39:28.323Z</time>
      </trkpt>
      <trkpt lat="49.33141" lon="-0.52553">
        <ele>37.4737475357</ele>
        <time>2022-02-04T09:39:33.255Z</time>
      </trkpt>
      <trkpt lat="49.33149" lon="-0.52499">
        <ele>37.47909322766</ele>
        <time>2022-02-04T09:39:38.193Z</time>
      </trkpt>
      <trkpt lat="49.3316" lon="-0.52437">
        <ele>37.28121749807</ele>
        <time>2022-02-04T09:39:43.137Z</time>
      </trkpt>
      <trkpt lat="49.33164" lon="-0.5241">
        <ele>37.07532205608</ele>
        <time>2022-02-04T09:39:48.084Z</time>
      </trkpt>
      <trkpt lat="49.33205" lon="-0.52245">
        <ele>36.69631779616</ele>
        <time>2022-02-04T09:39:53.050Z</time>
      </trkpt>
      <trkpt lat="49.33249" lon="-0.52042">
        <ele>36.34091160585</ele>
        <time>2022-02-04T09:39:58.038Z</time>
      </trkpt>
      <trkpt lat="49.33249" lon="-0.52042">
        <ele>35.96727773988</ele>
        <time>2022-02-04T09:40:03.026Z</time>
      </trkpt>
      <trkpt lat="49.33289" lon="-0.51886">
        <ele>35.52801381765</ele>
        <time>2022-02-04T09:40:08.032Z</time>
      </trkpt>
      <trkpt lat="49.33319" lon="-0.51803">
        <ele>34.93187033798</ele>
        <time>2022-02-04T09:40:13.048Z</time>
      </trkpt>
      <trkpt lat="49.33371" lon="-0.51693">
        <ele>34.30446347458</ele>
        <time>2022-02-04T09:40:18.078Z</time>
      </trkpt>
      <trkpt lat="49.33475" lon="-0.51538">
        <ele>33.36700175479</ele>
        <time>2022-02-04T09:40:23.131Z</time>
      </trkpt>
      <trkpt lat="49.33515" lon="-0.51483">
        <ele>32.31720764082</ele>
        <time>2022-02-04T09:40:28.193Z</time>
      </trkpt>
      <trkpt lat="49.33706" lon="-0.51224">
        <ele>30.96383348212</ele>
        <time>2022-02-04T09:40:33.296Z</time>
      </trkpt>
      <trkpt lat="49.33839" lon="-0.51045">
        <ele>29.37431480189</ele>
        <time>2022-02-04T09:40:38.427Z</time>
      </trkpt>
      <trkpt lat="49.3386" lon="-0.51011">
        <ele>27.65891578197</ele>
        <time>2022-02-04T09:40:43.563Z</time>
      </trkpt>
      <trkpt lat="49.3386" lon="-0.51011">
        <ele>25.75844782688</ele>
        <time>2022-02-04T09:40:48.699Z</time>
      </trkpt>
      <trkpt lat="49.33889" lon="-0.50964">
        <ele>23.57885186566</ele>
        <time>2022-02-04T09:40:53.842Z</time>
      </trkpt>
      <trkpt lat="49.33942" lon="-0.50916">
        <ele>21.08842253035</ele>
        <time>2022-02-04T09:40:58.994Z</time>
      </trkpt>
      <trkpt lat="49.33988" lon="-0.50864">
        <ele>18.55508730062</ele>
        <time>2022-02-04T09:41:04.156Z</time>
      </trkpt>
      <trkpt lat="49.34066" lon="-0.50769">
        <ele>16.06680027517</ele>
        <time>2022-02-04T09:41:09.334Z</time>
      </trkpt>
      <trkpt lat="49.34057" lon="-0.50715">
        <ele>14.0745695354</ele>
        <time>2022-02-04T09:41:14.517Z</time>
      </trkpt>
      <trkpt lat="49.34034" lon="-0.50633">
        <ele>12.3323801841</ele>
        <time>2022-02-04T09:41:19.710Z</time>
      </trkpt>
      <trkpt lat="49.34018" lon="-0.50555">
        <ele>10.71130879257</ele>
        <time>2022-02-04T09:41:24.911Z</time>
      </trkpt>
      <trkpt lat="49.3401" lon="-0.50494">
        <ele>9.48647293376</ele>
        <time>2022-02-04T09:41:30.119Z</time>
      </trkpt>
      <trkpt lat="49.33996" lon="-0.50426">
        <ele>8.48097654354</ele>
        <time>2022-02-04T09:41:35.334Z</time>
      </trkpt>
      <trkpt lat="49.33989" lon="-0.50395">
        <ele>7.75918173043</ele>
        <time>2022-02-04T09:41:40.553Z</time>
      </trkpt>
      <trkpt lat="49.3398" lon="-0.50367">
        <ele>7.23780736673</ele>
        <time>2022-02-04T09:41:45.775Z</time>
      </trkpt>
      <trkpt lat="49.33962" lon="-0.50319">
        <ele>6.97862287989</ele>
        <time>2022-02-04T09:41:51.003Z</time>
      </trkpt>
      <trkpt lat="49.33935" lon="-0.50259">
        <ele>6.82412852523</ele>
        <time>2022-02-04T09:41:56.238Z</time>
      </trkpt>
      <trkpt lat="49.33897" lon="-0.5018">
        <ele>6.82149335165</ele>
        <time>2022-02-04T09:42:01.484Z</time>
      </trkpt>
      <trkpt lat="49.33782" lon="-0.49972">
        <ele>7.08809354453</ele>
        <time>2022-02-04T09:42:06.758Z</time>
      </trkpt>
      <trkpt lat="49.33714" lon="-0.49821">
        <ele>7.38462432026</ele>
        <time>2022-02-04T09:42:12.051Z</time>
      </trkpt>
      <trkpt lat="49.3371" lon="-0.49812">
        <ele>7.85964515513</ele>
        <time>2022-02-04T09:42:17.346Z</time>
      </trkpt>
      <trkpt lat="49.3371" lon="-0.49812">
        <ele>8.43047285608</ele>
        <time>2022-02-04T09:42:22.641Z</time>
      </trkpt>
      <trkpt lat="49.33662" lon="-0.49715">
        <ele>9.06896337741</ele>
        <time>2022-02-04T09:42:27.948Z</time>
      </trkpt>
      <trkpt lat="49.33636" lon="-0.49649">
        <ele>9.94160346505</ele>
        <time>2022-02-04T09:42:33.263Z</time>
      </trkpt>
      <trkpt lat="49.33626" lon="-0.49597">
        <ele>10.68560542077</ele>
        <time>2022-02-04T09:42:38.584Z</time>
      </trkpt>
      <trkpt lat="49.33618" lon="-0.49574">
        <ele>11.41668421187</ele>
        <time>2022-02-04T09:42:43.908Z</time>
      </trkpt>
      <trkpt lat="49.33592" lon="-0.49537">
        <ele>12.23796140528</ele>
        <time>2022-02-04T09:42:49.237Z</time>
      </trkpt>
      <trkpt lat="49.33572" lon="-0.4948">
        <ele>12.81461342162</ele>
        <time>2022-02-04T09:42:54.573Z</time>
      </trkpt>
      <trkpt lat="49.33544" lon="-0.49362">
        <ele>13.21950466846</ele>
        <time>2022-02-04T09:42:59.922Z</time>
      </trkpt>
      <trkpt lat="49.33505" lon="-0.49268">
        <ele>13.39834798416</ele>
        <time>2022-02-04T09:43:05.283Z</time>
      </trkpt>
      <trkpt lat="49.33501" lon="-0.49246">
        <ele>13.63606862132</ele>
        <time>2022-02-04T09:43:10.646Z</time>
      </trkpt>
      <trkpt lat="49.335" lon="-0.49192">
        <ele>13.86842498184</ele>
        <time>2022-02-04T09:43:16.015Z</time>
      </trkpt>
      <trkpt lat="49.33493" lon="-0.49164">
        <ele>14.26173608069</ele>
        <time>2022-02-04T09:43:21.387Z</time>
      </trkpt>
      <trkpt lat="49.33483" lon="-0.49145">
        <ele>14.70485163521</ele>
        <time>2022-02-04T09:43:26.762Z</time>
      </trkpt>
      <trkpt lat="49.33466" lon="-0.49137">
        <ele>15.29120794624</ele>
        <time>2022-02-04T09:43:32.140Z</time>
      </trkpt>
      <trkpt lat="49.33443" lon="-0.49137">
        <ele>16.0918624475</ele>
        <time>2022-02-04T09:43:37.521Z</time>
      </trkpt>
      <trkpt lat="49.33363" lon="-0.49176">
        <ele>17.14030252052</ele>
        <time>2022-02-04T09:43:42.916Z</time>
      </trkpt>
      <trkpt lat="49.33312" lon="-0.49193">
        <ele>18.3309643506</ele>
        <time>2022-02-04T09:43:48.319Z</time>
      </trkpt>
      <trkpt lat="49.3331" lon="-0.49191">
        <ele>19.52448330076</ele>
        <time>2022-02-04T09:43:53.722Z</time>
      </trkpt>
      <trkpt lat="49.33176" lon="-0.49117">
        <ele>21.07469212603</ele>
        <time>2022-02-04T09:43:59.148Z</time>
      </trkpt>
      <trkpt lat="49.33141" lon="-0.49108">
        <ele>22.4223828061</ele>
        <time>2022-02-04T09:44:04.580Z</time>
      </trkpt>
      <trkpt lat="49.33133" lon="-0.49095">
        <ele>23.84576527981</ele>
        <time>2022-02-04T09:44:10.014Z</time>
      </trkpt>
      <trkpt lat="49.33128" lon="-0.4908">
        <ele>25.24618236455</ele>
        <time>2022-02-04T09:44:15.450Z</time>
      </trkpt>
      <trkpt lat="49.33127" lon="-0.49078">
        <ele>26.52313859291</ele>
        <time>2022-02-04T09:44:20.886Z</time>
      </trkpt>
      <trkpt lat="49.33134" lon="-0.48964">
        <ele>27.80581232607</ele>
        <time>2022-02-04T09:44:26.334Z</time>
      </trkpt>
      <trkpt lat="49.33132" lon="-0.48903">
        <ele>28.86377964753</ele>
        <time>2022-02-04T09:44:31.788Z</time>
      </trkpt>
      <trkpt lat="49.3312" lon="-0.48827">
        <ele>29.71957394502</ele>
        <time>2022-02-04T09:44:37.250Z</time>
      </trkpt>
      <trkpt lat="49.33088" lon="-0.48699">
        <ele>30.19184247543</ele>
        <time>2022-02-04T09:44:42.727Z</time>
      </trkpt>
      <trkpt lat="49.33065" lon="-0.48576">
        <ele>30.34500525779</ele>
        <time>2022-02-04T09:44:48.217Z</time>
      </trkpt>
      <trkpt lat="49.33061" lon="-0.48542">
        <ele>30.18663767949</ele>
        <time>2022-02-04T09:44:53.711Z</time>
      </trkpt>
      <trkpt lat="49.33064" lon="-0.48501">
        <ele>29.70632587422</ele>
        <time>2022-02-04T09:44:59.209Z</time>
      </trkpt>
      <trkpt lat="49.33069" lon="-0.48471">
        <ele>28.79691008157</ele>
        <time>2022-02-04T09:45:04.710Z</time>
      </trkpt>
      <trkpt lat="49.33083" lon="-0.48432">
        <ele>27.60856926177</ele>
        <time>2022-02-04T09:45:10.216Z</time>
      </trkpt>
      <trkpt lat="49.33124" lon="-0.48376">
        <ele>26.08316424261</ele>
        <time>2022-02-04T09:45:15.731Z</time>
      </trkpt>
      <trkpt lat="49.33182" lon="-0.48304">
        <ele>24.21955819783</ele>
        <time>2022-02-04T09:45:21.258Z</time>
      </trkpt>
      <trkpt lat="49.33206" lon="-0.48257">
        <ele>22.31176915107</ele>
        <time>2022-02-04T09:45:26.791Z</time>
      </trkpt>
      <trkpt lat="49.33223" lon="-0.48195">
        <ele>20.46284159239</ele>
        <time>2022-02-04T09:45:32.331Z</time>
      </trkpt>
      <trkpt lat="49.3323" lon="-0.48139">
        <ele>18.71891452304</ele>
        <time>2022-02-04T09:45:37.877Z</time>
      </trkpt>
      <trkpt lat="49.3323" lon="-0.48088">
        <ele>17.03003270802</ele>
        <time>2022-02-04T09:45:43.428Z</time>
      </trkpt>
      <trkpt lat="49.33225" lon="-0.48046">
        <ele>15.40018270818</ele>
        <time>2022-02-04T09:45:48.984Z</time>
      </trkpt>
      <trkpt lat="49.33218" lon="-0.48013">
        <ele>13.83248871288</ele>
        <time>2022-02-04T09:45:54.543Z</time>
      </trkpt>
      <trkpt lat="49.33213" lon="-0.47994">
        <ele>12.37826155122</ele>
        <time>2022-02-04T09:46:00.104Z</time>
      </trkpt>
      <trkpt lat="49.3301" lon="-0.47512">
        <ele>10.58291474175</ele>
        <time>2022-02-04T09:46:05.726Z</time>
      </trkpt>
      <trkpt lat="49.33006" lon="-0.47491">
        <ele>9.37059854463</ele>
        <time>2022-02-04T09:46:11.350Z</time>
      </trkpt>
      <trkpt lat="49.33007" lon="-0.47471">
        <ele>8.36393792626</ele>
        <time>2022-02-04T09:46:16.976Z</time>
      </trkpt>
      <trkpt lat="49.32988" lon="-0.47494">
        <ele>7.55572942657</ele>
        <time>2022-02-04T09:46:22.606Z</time>
      </trkpt>
      <trkpt lat="49.32987" lon="-0.47495">
        <ele>6.92489505356</ele>
        <time>2022-02-04T09:46:28.236Z</time>
      </trkpt>
      <trkpt lat="49.32987" lon="-0.47495">
        <ele>6.4545141346</ele>
        <time>2022-02-04T09:46:33.866Z</time>
      </trkpt>
      <trkpt lat="49.32987" lon="-0.47495">
        <ele>6.12234924648</ele>
        <time>2022-02-04T09:46:39.496Z</time>
      </trkpt>
      <trkpt lat="49.33007" lon="-0.47471">
        <ele>5.90448080222</ele>
        <time>2022-02-04T09:46:45.130Z</time>
      </trkpt>
      <trkpt lat="49.33007" lon="-0.47471">
        <ele>8.36393792626</ele>
        <time>2022-02-04T09:46:50.764Z</time>
      </trkpt>
      <trkpt lat="49.33017" lon="-0.47451">
        <ele>5.70428922296</ele>
        <time>2022-02-04T09:46:56.401Z</time>
      </trkpt>
      <trkpt lat="49.33018" lon="-0.47444">
        <ele>5.7360036563</ele>
        <time>2022-02-04T09:47:02.038Z</time>
      </trkpt>
      <trkpt lat="49.33018" lon="-0.47421">
        <ele>5.79766418936</ele>
        <time>2022-02-04T09:47:07.678Z</time>
      </trkpt>
      <trkpt lat="49.33015" lon="-0.474">
        <ele>5.94278351726</ele>
        <time>2022-02-04T09:47:13.320Z</time>
      </trkpt>
      <trkpt lat="49.32997" lon="-0.47357">
        <ele>6.1600964774</ele>
        <time>2022-02-04T09:47:18.968Z</time>
      </trkpt>
      <trkpt lat="49.32983" lon="-0.4734">
        <ele>6.5227430011</ele>
        <time>2022-02-04T09:47:24.618Z</time>
      </trkpt>
      <trkpt lat="49.3295" lon="-0.47283">
        <ele>7.02359029107</ele>
        <time>2022-02-04T09:47:30.276Z</time>
      </trkpt>
      <trkpt lat="49.32931" lon="-0.47251">
        <ele>7.5109856616</ele>
        <time>2022-02-04T09:47:35.939Z</time>
      </trkpt>
      <trkpt lat="49.3291" lon="-0.47205">
        <ele>7.97189508587</ele>
        <time>2022-02-04T09:47:41.608Z</time>
      </trkpt>
      <trkpt lat="49.32903" lon="-0.47193">
        <ele>8.35974853868</ele>
        <time>2022-02-04T09:47:47.278Z</time>
      </trkpt>
      <trkpt lat="49.32876" lon="-0.47156">
        <ele>8.68223043783</ele>
        <time>2022-02-04T09:47:52.954Z</time>
      </trkpt>
      <trkpt lat="49.32821" lon="-0.47117">
        <ele>8.90950817042</ele>
        <time>2022-02-04T09:47:58.640Z</time>
      </trkpt>
      <trkpt lat="49.32807" lon="-0.47107">
        <ele>9.122934824</ele>
        <time>2022-02-04T09:48:04.328Z</time>
      </trkpt>
      <trkpt lat="49.32784" lon="-0.47082">
        <ele>9.32458133114</ele>
        <time>2022-02-04T09:48:10.021Z</time>
      </trkpt>
      <trkpt lat="49.32769" lon="-0.47043">
        <ele>9.38950412193</ele>
        <time>2022-02-04T09:48:15.719Z</time>
      </trkpt>
      <trkpt lat="49.32751" lon="-0.46993">
        <ele>9.29148742408</ele>
        <time>2022-02-04T09:48:21.423Z</time>
      </trkpt>
      <trkpt lat="49.32698" lon="-0.47049">
        <ele>9.30424897369</ele>
        <time>2022-02-04T09:48:27.137Z</time>
      </trkpt>
      <trkpt lat="49.32682" lon="-0.47046">
        <ele>9.04030109578</ele>
        <time>2022-02-04T09:48:32.853Z</time>
      </trkpt>
      <trkpt lat="49.32684" lon="-0.47009">
        <ele>8.55645750709</ele>
        <time>2022-02-04T09:48:38.573Z</time>
      </trkpt>
      <trkpt lat="49.32679" lon="-0.46988">
        <ele>7.97246746253</ele>
        <time>2022-02-04T09:48:44.296Z</time>
      </trkpt>
      <trkpt lat="49.32675" lon="-0.46979">
        <ele>7.35458338637</ele>
        <time>2022-02-04T09:48:50.020Z</time>
      </trkpt>
      <trkpt lat="49.32675" lon="-0.46979">
        <ele>6.71983400492</ele>
        <time>2022-02-04T09:48:55.744Z</time>
      </trkpt>
      <trkpt lat="49.32675" lon="-0.46978">
        <ele>6.0835604934</ele>
        <time>2022-02-04T09:49:01.468Z</time>
      </trkpt>
      <trkpt lat="49.32675" lon="-0.46978">
        <ele>5.49311675675</ele>
        <time>2022-02-04T09:49:07.192Z</time>
      </trkpt>
      <trkpt lat="49.32644" lon="-0.469">
        <ele>4.913770806</ele>
        <time>2022-02-04T09:49:12.925Z</time>
      </trkpt>
      <trkpt lat="49.32607" lon="-0.46806">
        <ele>4.31117748139</ele>
        <time>2022-02-04T09:49:18.670Z</time>
      </trkpt>
      <trkpt lat="49.32602" lon="-0.46781">
        <ele>4.24900862989</ele>
        <time>2022-02-04T09:49:24.418Z</time>
      </trkpt>
      <trkpt lat="49.326" lon="-0.46757">
        <ele>4.39184271168</ele>
        <time>2022-02-04T09:49:30.168Z</time>
      </trkpt>
      <trkpt lat="49.326" lon="-0.46659">
        <ele>4.84168654772</ele>
        <time>2022-02-04T09:49:35.929Z</time>
      </trkpt>
      <trkpt lat="49.32592" lon="-0.46462">
        <ele>5.72805326994</ele>
        <time>2022-02-04T09:49:41.710Z</time>
      </trkpt>
      <trkpt lat="49.32592" lon="-0.46462">
        <ele>6.63805569452</ele>
        <time>2022-02-04T09:49:47.491Z</time>
      </trkpt>
      <trkpt lat="49.32591" lon="-0.4643">
        <ele>7.89703840286</ele>
        <time>2022-02-04T09:49:53.275Z</time>
      </trkpt>
      <trkpt lat="49.32591" lon="-0.46398">
        <ele>9.24874625582</ele>
        <time>2022-02-04T09:49:59.063Z</time>
      </trkpt>
      <trkpt lat="49.32593" lon="-0.46387">
        <ele>10.55094657662</ele>
        <time>2022-02-04T09:50:04.852Z</time>
      </trkpt>
      <trkpt lat="49.32607" lon="-0.4636">
        <ele>11.85516741275</ele>
        <time>2022-02-04T09:50:10.645Z</time>
      </trkpt>
      <trkpt lat="49.32666" lon="-0.46282">
        <ele>13.08682694668</ele>
        <time>2022-02-04T09:50:16.450Z</time>
      </trkpt>
      <trkpt lat="49.32678" lon="-0.46269">
        <ele>14.33170948384</ele>
        <time>2022-02-04T09:50:22.257Z</time>
      </trkpt>
      <trkpt lat="49.32741" lon="-0.46199">
        <ele>15.56918843684</ele>
        <time>2022-02-04T09:50:28.077Z</time>
      </trkpt>
      <trkpt lat="49.32757" lon="-0.46172">
        <ele>16.61634936764</ele>
        <time>2022-02-04T09:50:33.901Z</time>
      </trkpt>
      <trkpt lat="49.32763" lon="-0.46154">
        <ele>17.46767311322</ele>
        <time>2022-02-04T09:50:39.727Z</time>
      </trkpt>
      <trkpt lat="49.3276" lon="-0.46145">
        <ele>18.12116035139</ele>
        <time>2022-02-04T09:50:45.554Z</time>
      </trkpt>
      <trkpt lat="49.3276" lon="-0.46134">
        <ele>18.58514400467</ele>
        <time>2022-02-04T09:50:51.382Z</time>
      </trkpt>
      <trkpt lat="49.32763" lon="-0.46124">
        <ele>18.88004006486</ele>
        <time>2022-02-04T09:50:57.211Z</time>
      </trkpt>
      <trkpt lat="49.32768" lon="-0.46117">
        <ele>19.01969695657</ele>
        <time>2022-02-04T09:51:03.041Z</time>
      </trkpt>
      <trkpt lat="49.32775" lon="-0.46114">
        <ele>19.01695538197</ele>
        <time>2022-02-04T09:51:08.872Z</time>
      </trkpt>
      <trkpt lat="49.3278" lon="-0.46115">
        <ele>18.89463903694</ele>
        <time>2022-02-04T09:51:14.704Z</time>
      </trkpt>
      <trkpt lat="49.32787" lon="-0.4612">
        <ele>18.67236568987</ele>
        <time>2022-02-04T09:51:20.538Z</time>
      </trkpt>
      <trkpt lat="49.32789" lon="-0.46124">
        <ele>18.39167869288</ele>
        <time>2022-02-04T09:51:26.372Z</time>
      </trkpt>
      <trkpt lat="49.32792" lon="-0.46129">
        <ele>18.06166038845</ele>
        <time>2022-02-04T09:51:32.207Z</time>
      </trkpt>
      <trkpt lat="49.32793" lon="-0.46145">
        <ele>17.6880437867</ele>
        <time>2022-02-04T09:51:38.043Z</time>
      </trkpt>
      <trkpt lat="49.32792" lon="-0.46152">
        <ele>17.30424696357</ele>
        <time>2022-02-04T09:51:43.880Z</time>
      </trkpt>
      <trkpt lat="49.32787" lon="-0.46159">
        <ele>16.93139994317</ele>
        <time>2022-02-04T09:51:49.718Z</time>
      </trkpt>
      <trkpt lat="49.32781" lon="-0.46164">
        <ele>16.57961453543</ele>
        <time>2022-02-04T09:51:55.557Z</time>
      </trkpt>
      <trkpt lat="49.32775" lon="-0.46165">
        <ele>16.25904223514</ele>
        <time>2022-02-04T09:52:01.397Z</time>
      </trkpt>
      <trkpt lat="49.32765" lon="-0.46173">
        <ele>15.95426931853</ele>
        <time>2022-02-04T09:52:07.239Z</time>
      </trkpt>
      <trkpt lat="49.32761" lon="-0.46178">
        <ele>15.68789972197</ele>
        <time>2022-02-04T09:52:13.082Z</time>
      </trkpt>
      <trkpt lat="49.32761" lon="-0.46179">
        <ele>15.49345539051</ele>
        <time>2022-02-04T09:52:18.925Z</time>
      </trkpt>
      <trkpt lat="49.3276" lon="-0.46179">
        <ele>15.37171674754</ele>
        <time>2022-02-04T09:52:24.768Z</time>
      </trkpt>
      <trkpt lat="49.3276" lon="-0.46179">
        <ele>15.33960748956</ele>
        <time>2022-02-04T09:52:30.611Z</time>
      </trkpt>
      <trkpt lat="49.32755" lon="-0.46187">
        <ele>15.39574485676</ele>
        <time>2022-02-04T09:52:36.455Z</time>
      </trkpt>
      <trkpt lat="49.32741" lon="-0.46199">
        <ele>15.56918843684</ele>
        <time>2022-02-04T09:52:42.302Z</time>
      </trkpt>
      <trkpt lat="49.32757" lon="-0.46172">
        <ele>16.61634936764</ele>
        <time>2022-02-04T09:52:48.153Z</time>
      </trkpt>
      <trkpt lat="49.32763" lon="-0.46154">
        <ele>17.46767311322</ele>
        <time>2022-02-04T09:52:54.006Z</time>
      </trkpt>
      <trkpt lat="49.3276" lon="-0.46145">
        <ele>18.12116035139</ele>
        <time>2022-02-04T09:52:59.860Z</time>
      </trkpt>
      <trkpt lat="49.3276" lon="-0.46134">
        <ele>17.85355758937</ele>
        <time>2022-02-04T09:53:05.715Z</time>
      </trkpt>
      <trkpt lat="49.32753" lon="-0.46119">
        <ele>18.76842996034</ele>
        <time>2022-02-04T09:53:11.572Z</time>
      </trkpt>
      <trkpt lat="49.32723" lon="-0.46078">
        <ele>19.8850977977</ele>
        <time>2022-02-04T09:53:17.435Z</time>
      </trkpt>
      <trkpt lat="49.32719" lon="-0.46074">
        <ele>21.02473689718</ele>
        <time>2022-02-04T09:53:23.299Z</time>
      </trkpt>
      <trkpt lat="49.32512" lon="-0.45849">
        <ele>22.39157528552</ele>
        <time>2022-02-04T09:53:29.204Z</time>
      </trkpt>
      <trkpt lat="49.32444" lon="-0.45777">
        <ele>23.72697095238</ele>
        <time>2022-02-04T09:53:35.122Z</time>
      </trkpt>
      <trkpt lat="49.32435" lon="-0.45768">
        <ele>24.97716827092</ele>
        <time>2022-02-04T09:53:41.042Z</time>
      </trkpt>
      <trkpt lat="49.32326" lon="-0.45653">
        <ele>26.31884070589</ele>
        <time>2022-02-04T09:53:46.983Z</time>
      </trkpt>
      <trkpt lat="49.32326" lon="-0.45653">
        <ele>27.40597782374</ele>
        <time>2022-02-04T09:53:52.924Z</time>
      </trkpt>
      <trkpt lat="49.32305" lon="-0.45629">
        <ele>28.38832881897</ele>
        <time>2022-02-04T09:53:58.869Z</time>
      </trkpt>
      <trkpt lat="49.32286" lon="-0.45612">
        <ele>29.30226550526</ele>
        <time>2022-02-04T09:54:04.818Z</time>
      </trkpt>
      <trkpt lat="49.32273" lon="-0.45598">
        <ele>30.08661293086</ele>
        <time>2022-02-04T09:54:10.769Z</time>
      </trkpt>
      <trkpt lat="49.32273" lon="-0.45597">
        <ele>30.67254658613</ele>
        <time>2022-02-04T09:54:16.720Z</time>
      </trkpt>
      <trkpt lat="49.32272" lon="-0.45597">
        <ele>31.12412119858</ele>
        <time>2022-02-04T09:54:22.671Z</time>
      </trkpt>
      <trkpt lat="49.32272" lon="-0.45597">
        <ele>31.44668574755</ele>
        <time>2022-02-04T09:54:28.622Z</time>
      </trkpt>
      <trkpt lat="49.32257" lon="-0.45581">
        <ele>31.71894385956</ele>
        <time>2022-02-04T09:54:34.576Z</time>
      </trkpt>
      <trkpt lat="49.32242" lon="-0.45566">
        <ele>31.86181912527</ele>
        <time>2022-02-04T09:54:40.533Z</time>
      </trkpt>
      <trkpt lat="49.32235" lon="-0.45576">
        <ele>31.84177524055</ele>
        <time>2022-02-04T09:54:46.492Z</time>
      </trkpt>
      <trkpt lat="49.32225" lon="-0.45578">
        <ele>31.73373865858</ele>
        <time>2022-02-04T09:54:52.452Z</time>
      </trkpt>
      <trkpt lat="49.3222" lon="-0.45576">
        <ele>31.56639940291</ele>
        <time>2022-02-04T09:54:58.413Z</time>
      </trkpt>
      <trkpt lat="49.32214" lon="-0.4557">
        <ele>31.35046078335</ele>
        <time>2022-02-04T09:55:04.375Z</time>
      </trkpt>
      <trkpt lat="49.3221" lon="-0.45562">
        <ele>31.12696246804</ele>
        <time>2022-02-04T09:55:10.338Z</time>
      </trkpt>
      <trkpt lat="49.32209" lon="-0.45552">
        <ele>30.93566184945</ele>
        <time>2022-02-04T09:55:16.302Z</time>
      </trkpt>
      <trkpt lat="49.32209" lon="-0.45543">
        <ele>30.76747224232</ele>
        <time>2022-02-04T09:55:22.267Z</time>
      </trkpt>
      <trkpt lat="49.32211" lon="-0.45534">
        <ele>30.62856805776</ele>
        <time>2022-02-04T09:55:28.233Z</time>
      </trkpt>
      <trkpt lat="49.32219" lon="-0.45524">
        <ele>30.52394724359</ele>
        <time>2022-02-04T09:55:34.201Z</time>
      </trkpt>
      <trkpt lat="49.32229" lon="-0.4552">
        <ele>30.46786884526</ele>
        <time>2022-02-04T09:55:40.171Z</time>
      </trkpt>
      <trkpt lat="49.32235" lon="-0.45522">
        <ele>30.41995678346</ele>
        <time>2022-02-04T09:55:46.141Z</time>
      </trkpt>
      <trkpt lat="49.32243" lon="-0.45492">
        <ele>30.38924611174</ele>
        <time>2022-02-04T09:55:52.115Z</time>
      </trkpt>
      <trkpt lat="49.32257" lon="-0.45412">
        <ele>30.31720311877</ele>
        <time>2022-02-04T09:55:58.098Z</time>
      </trkpt>
      <trkpt lat="49.32257" lon="-0.45412">
        <ele>30.26318626264</ele>
        <time>2022-02-04T09:56:04.081Z</time>
      </trkpt>
      <trkpt lat="49.32264" lon="-0.4539">
        <ele>30.1861657616</ele>
        <time>2022-02-04T09:56:10.066Z</time>
      </trkpt>
      <trkpt lat="49.32272" lon="-0.45368">
        <ele>30.09393389301</ele>
        <time>2022-02-04T09:56:16.054Z</time>
      </trkpt>
      <trkpt lat="49.32285" lon="-0.45346">
        <ele>29.98221814195</ele>
        <time>2022-02-04T09:56:22.045Z</time>
      </trkpt>
      <trkpt lat="49.32287" lon="-0.45334">
        <ele>29.885365467</ele>
        <time>2022-02-04T09:56:28.037Z</time>
      </trkpt>
      <trkpt lat="49.32281" lon="-0.45329">
        <ele>29.79822291542</ele>
        <time>2022-02-04T09:56:34.030Z</time>
      </trkpt>
      <trkpt lat="49.32277" lon="-0.4532">
        <ele>29.67522858112</ele>
        <time>2022-02-04T09:56:40.025Z</time>
      </trkpt>
      <trkpt lat="49.32278" lon="-0.4531">
        <ele>29.52579808404</ele>
        <time>2022-02-04T09:56:46.021Z</time>
      </trkpt>
      <trkpt lat="49.32281" lon="-0.45301">
        <ele>29.36900174337</ele>
        <time>2022-02-04T09:56:52.018Z</time>
      </trkpt>
      <trkpt lat="49.32284" lon="-0.45298">
        <ele>29.20736609353</ele>
        <time>2022-02-04T09:56:58.015Z</time>
      </trkpt>
      <trkpt lat="49.32291" lon="-0.45296">
        <ele>29.02535223066</ele>
        <time>2022-02-04T09:57:04.013Z</time>
      </trkpt>
      <trkpt lat="49.32322" lon="-0.4522">
        <ele>28.81777872061</ele>
        <time>2022-02-04T09:57:10.021Z</time>
      </trkpt>
      <trkpt lat="49.32322" lon="-0.4522">
        <ele>28.58732251818</ele>
        <time>2022-02-04T09:57:16.029Z</time>
      </trkpt>
      <trkpt lat="49.32355" lon="-0.45131">
        <ele>28.21562655427</ele>
        <time>2022-02-04T09:57:22.048Z</time>
      </trkpt>
      <trkpt lat="49.32377" lon="-0.45084">
        <ele>27.95279276771</ele>
        <time>2022-02-04T09:57:28.073Z</time>
      </trkpt>
      <trkpt lat="49.32401" lon="-0.45032">
        <ele>27.71928159482</ele>
        <time>2022-02-04T09:57:34.104Z</time>
      </trkpt>
      <trkpt lat="49.32417" lon="-0.44997">
        <ele>27.39022151824</ele>
        <time>2022-02-04T09:57:40.140Z</time>
      </trkpt>
      <trkpt lat="49.32479" lon="-0.44867">
        <ele>26.8550285172</ele>
        <time>2022-02-04T09:57:46.193Z</time>
      </trkpt>
      <trkpt lat="49.32479" lon="-0.44867">
        <ele>26.52883041239</ele>
        <time>2022-02-04T09:57:52.246Z</time>
      </trkpt>
      <trkpt lat="49.32507" lon="-0.44807">
        <ele>26.24608709632</ele>
        <time>2022-02-04T09:57:58.306Z</time>
      </trkpt>
      <trkpt lat="49.32528" lon="-0.44757">
        <ele>25.88011951447</ele>
        <time>2022-02-04T09:58:04.372Z</time>
      </trkpt>
      <trkpt lat="49.32537" lon="-0.44739">
        <ele>25.44626590365</ele>
        <time>2022-02-04T09:58:10.441Z</time>
      </trkpt>
      <trkpt lat="49.32545" lon="-0.44734">
        <ele>24.92297473036</ele>
        <time>2022-02-04T09:58:16.511Z</time>
      </trkpt>
      <trkpt lat="49.32552" lon="-0.44732">
        <ele>24.28214944739</ele>
        <time>2022-02-04T09:58:22.582Z</time>
      </trkpt>
      <trkpt lat="49.32582" lon="-0.4473">
        <ele>23.46707037902</ele>
        <time>2022-02-04T09:58:28.658Z</time>
      </trkpt>
      <trkpt lat="49.32582" lon="-0.4473">
        <ele>22.56248647815</ele>
        <time>2022-02-04T09:58:34.734Z</time>
      </trkpt>
      <trkpt lat="49.32678" lon="-0.44721">
        <ele>21.3615436978</ele>
        <time>2022-02-04T09:58:40.826Z</time>
      </trkpt>
      <trkpt lat="49.32678" lon="-0.44721">
        <ele>20.226850319</ele>
        <time>2022-02-04T09:58:46.918Z</time>
      </trkpt>
      <trkpt lat="49.32732" lon="-0.44723">
        <ele>18.8762260196</ele>
        <time>2022-02-04T09:58:53.018Z</time>
      </trkpt>
      <trkpt lat="49.32888" lon="-0.44737">
        <ele>17.43910452929</ele>
        <time>2022-02-04T09:58:59.143Z</time>
      </trkpt>
      <trkpt lat="49.32888" lon="-0.44737">
        <ele>16.25490243985</ele>
        <time>2022-02-04T09:59:05.268Z</time>
      </trkpt>
      <trkpt lat="49.32943" lon="-0.4474">
        <ele>15.03636433089</ele>
        <time>2022-02-04T09:59:11.402Z</time>
      </trkpt>
      <trkpt lat="49.32942" lon="-0.44733">
        <ele>14.02841761507</ele>
        <time>2022-02-04T09:59:17.537Z</time>
      </trkpt>
      <trkpt lat="49.32981" lon="-0.44736">
        <ele>13.0863879616</ele>
        <time>2022-02-04T09:59:23.678Z</time>
      </trkpt>
      <trkpt lat="49.32982" lon="-0.44736">
        <ele>12.36457887063</ele>
        <time>2022-02-04T09:59:29.819Z</time>
      </trkpt>
      <trkpt lat="49.32982" lon="-0.44736">
        <ele>11.781788563</ele>
        <time>2022-02-04T09:59:35.960Z</time>
      </trkpt>
      <trkpt lat="49.32942" lon="-0.44733">
        <ele>14.02841761507</ele>
        <time>2022-02-04T09:59:42.108Z</time>
      </trkpt>
      <trkpt lat="49.32943" lon="-0.4474">
        <ele>11.05472641269</ele>
        <time>2022-02-04T09:59:48.257Z</time>
      </trkpt>
      <trkpt lat="49.33008" lon="-0.44745">
        <ele>10.61683085227</ele>
        <time>2022-02-04T09:59:54.416Z</time>
      </trkpt>
      <trkpt lat="49.33013" lon="-0.44745">
        <ele>10.38839956438</ele>
        <time>2022-02-04T10:00:00.576Z</time>
      </trkpt>
      <trkpt lat="49.33024" lon="-0.44739">
        <ele>10.19861680309</ele>
        <time>2022-02-04T10:00:06.738Z</time>
      </trkpt>
      <trkpt lat="49.33023" lon="-0.44724">
        <ele>10.12015985377</ele>
        <time>2022-02-04T10:00:12.901Z</time>
      </trkpt>
      <trkpt lat="49.33019" lon="-0.44657">
        <ele>10.12246821282</ele>
        <time>2022-02-04T10:00:19.071Z</time>
      </trkpt>
      <trkpt lat="49.33019" lon="-0.44657">
        <ele>10.11449147869</ele>
        <time>2022-02-04T10:00:25.241Z</time>
      </trkpt>
      <trkpt lat="49.32999" lon="-0.44345">
        <ele>10.16171199992</ele>
        <time>2022-02-04T10:00:31.444Z</time>
      </trkpt>
      <trkpt lat="49.32997" lon="-0.44345">
        <ele>10.1565277453</ele>
        <time>2022-02-04T10:00:37.647Z</time>
      </trkpt>
      <trkpt lat="49.32989" lon="-0.44238">
        <ele>10.08966999868</ele>
        <time>2022-02-04T10:00:43.862Z</time>
      </trkpt>
      <trkpt lat="49.32984" lon="-0.44156">
        <ele>9.94920111263</ele>
        <time>2022-02-04T10:00:50.085Z</time>
      </trkpt>
      <trkpt lat="49.32984" lon="-0.44156">
        <ele>9.88230008232</ele>
        <time>2022-02-04T10:00:56.308Z</time>
      </trkpt>
      <trkpt lat="49.32963" lon="-0.43834">
        <ele>9.84136829265</ele>
        <time>2022-02-04T10:01:02.565Z</time>
      </trkpt>
      <trkpt lat="49.32962" lon="-0.43829">
        <ele>9.75561818942</ele>
        <time>2022-02-04T10:01:08.823Z</time>
      </trkpt>
      <trkpt lat="49.32942" lon="-0.43493">
        <ele>9.60108351252</ele>
        <time>2022-02-04T10:01:15.116Z</time>
      </trkpt>
      <trkpt lat="49.32941" lon="-0.43463">
        <ele>9.50589368791</ele>
        <time>2022-02-04T10:01:21.412Z</time>
      </trkpt>
      <trkpt lat="49.32943" lon="-0.43404">
        <ele>9.41226480158</ele>
        <time>2022-02-04T10:01:27.715Z</time>
      </trkpt>
      <trkpt lat="49.32931" lon="-0.43326">
        <ele>9.3309993808</ele>
        <time>2022-02-04T10:01:34.026Z</time>
      </trkpt>
      <trkpt lat="49.32933" lon="-0.43301">
        <ele>9.27112256875</ele>
        <time>2022-02-04T10:01:40.340Z</time>
      </trkpt>
      <trkpt lat="49.32914" lon="-0.43068">
        <ele>9.03452534542</ele>
        <time>2022-02-04T10:01:46.678Z</time>
      </trkpt>
      <trkpt lat="49.32906" lon="-0.42986">
        <ele>9.0781290461</ele>
        <time>2022-02-04T10:01:53.025Z</time>
      </trkpt>
      <trkpt lat="49.32904" lon="-0.4295">
        <ele>8.92231377372</ele>
        <time>2022-02-04T10:01:59.376Z</time>
      </trkpt>
      <trkpt lat="49.32906" lon="-0.42886">
        <ele>8.74444127775</ele>
        <time>2022-02-04T10:02:05.733Z</time>
      </trkpt>
      <trkpt lat="49.32907" lon="-0.42849">
        <ele>8.5935818932</ele>
        <time>2022-02-04T10:02:12.094Z</time>
      </trkpt>
      <trkpt lat="49.3291" lon="-0.42804">
        <ele>8.38285240758</ele>
        <time>2022-02-04T10:02:18.460Z</time>
      </trkpt>
      <trkpt lat="49.3291" lon="-0.42804">
        <ele>8.2144359063</ele>
        <time>2022-02-04T10:02:24.826Z</time>
      </trkpt>
      <trkpt lat="49.32911" lon="-0.4279">
        <ele>8.04528851153</ele>
        <time>2022-02-04T10:02:31.193Z</time>
      </trkpt>
      <trkpt lat="49.3289" lon="-0.42661">
        <ele>7.91408171507</ele>
        <time>2022-02-04T10:02:37.574Z</time>
      </trkpt>
      <trkpt lat="49.3289" lon="-0.42661">
        <ele>7.75875029913</ele>
        <time>2022-02-04T10:02:43.955Z</time>
      </trkpt>
      <trkpt lat="49.3288" lon="-0.4262">
        <ele>7.56567618175</ele>
        <time>2022-02-04T10:02:50.341Z</time>
      </trkpt>
      <trkpt lat="49.32888" lon="-0.42577">
        <ele>7.40324843806</ele>
        <time>2022-02-04T10:02:56.732Z</time>
      </trkpt>
      <trkpt lat="49.32888" lon="-0.42576">
        <ele>7.32101911185</ele>
        <time>2022-02-04T10:03:03.123Z</time>
      </trkpt>
      <trkpt lat="49.32888" lon="-0.42576">
        <ele>7.28009374743</ele>
        <time>2022-02-04T10:03:09.514Z</time>
      </trkpt>
      <trkpt lat="49.32889" lon="-0.42569">
        <ele>7.29732941874</ele>
        <time>2022-02-04T10:03:15.905Z</time>
      </trkpt>
      <trkpt lat="49.32889" lon="-0.42569">
        <ele>7.34525359779</ele>
        <time>2022-02-04T10:03:22.296Z</time>
      </trkpt>
      <trkpt lat="49.32894" lon="-0.42541">
        <ele>7.45658242447</ele>
        <time>2022-02-04T10:03:28.690Z</time>
      </trkpt>
      <trkpt lat="49.32895" lon="-0.42515">
        <ele>7.59586614528</ele>
        <time>2022-02-04T10:03:35.087Z</time>
      </trkpt>
      <trkpt lat="49.32896" lon="-0.42506">
        <ele>7.75530276285</ele>
        <time>2022-02-04T10:03:41.485Z</time>
      </trkpt>
      <trkpt lat="49.32905" lon="-0.42503">
        <ele>7.89273651345</ele>
        <time>2022-02-04T10:03:47.885Z</time>
      </trkpt>
      <trkpt lat="49.32916" lon="-0.42501">
        <ele>8.04463166136</ele>
        <time>2022-02-04T10:03:54.286Z</time>
      </trkpt>
      <trkpt lat="49.32968" lon="-0.42481">
        <ele>8.21663067487</ele>
        <time>2022-02-04T10:04:00.696Z</time>
      </trkpt>
      <trkpt lat="49.3299" lon="-0.42472">
        <ele>8.37829209634</ele>
        <time>2022-02-04T10:04:07.110Z</time>
      </trkpt>
      <trkpt lat="49.33021" lon="-0.42464">
        <ele>8.58625751678</ele>
        <time>2022-02-04T10:04:13.529Z</time>
      </trkpt>
      <trkpt lat="49.33048" lon="-0.42451">
        <ele>8.72013896285</ele>
        <time>2022-02-04T10:04:19.952Z</time>
      </trkpt>
      <trkpt lat="49.33053" lon="-0.42448">
        <ele>8.82075580148</ele>
        <time>2022-02-04T10:04:26.376Z</time>
      </trkpt>
      <trkpt lat="49.33091" lon="-0.42428">
        <ele>8.8885284112</ele>
        <time>2022-02-04T10:04:32.807Z</time>
      </trkpt>
      <trkpt lat="49.33098" lon="-0.42426">
        <ele>8.92265468831</ele>
        <time>2022-02-04T10:04:39.239Z</time>
      </trkpt>
      <trkpt lat="49.33109" lon="-0.42423">
        <ele>8.92483187012</ele>
        <time>2022-02-04T10:04:45.672Z</time>
      </trkpt>
      <trkpt lat="49.33118" lon="-0.42418">
        <ele>8.89898615132</ele>
        <time>2022-02-04T10:04:52.107Z</time>
      </trkpt>
      <trkpt lat="49.33118" lon="-0.42418">
        <ele>8.85103587723</ele>
        <time>2022-02-04T10:04:58.542Z</time>
      </trkpt>
      <trkpt lat="49.33136" lon="-0.42395">
        <ele>8.74586155352</ele>
        <time>2022-02-04T10:05:04.981Z</time>
      </trkpt>
      <trkpt lat="49.3314" lon="-0.42387">
        <ele>8.66385835292</ele>
        <time>2022-02-04T10:05:11.421Z</time>
      </trkpt>
      <trkpt lat="49.33145" lon="-0.42362">
        <ele>8.6577939554</ele>
        <time>2022-02-04T10:05:17.864Z</time>
      </trkpt>
      <trkpt lat="49.33147" lon="-0.42347">
        <ele>8.61340884211</ele>
        <time>2022-02-04T10:05:24.308Z</time>
      </trkpt>
      <trkpt lat="49.33154" lon="-0.42298">
        <ele>8.56430552094</ele>
        <time>2022-02-04T10:05:30.757Z</time>
      </trkpt>
      <trkpt lat="49.33155" lon="-0.42295">
        <ele>8.53722058647</ele>
        <time>2022-02-04T10:05:37.207Z</time>
      </trkpt>
      <trkpt lat="49.33161" lon="-0.42256">
        <ele>8.50189786485</ele>
        <time>2022-02-04T10:05:43.661Z</time>
      </trkpt>
      <trkpt lat="49.33162" lon="-0.42251">
        <ele>8.53640297509</ele>
        <time>2022-02-04T10:05:50.115Z</time>
      </trkpt>
      <trkpt lat="49.33168" lon="-0.42201">
        <ele>8.66873132299</ele>
        <time>2022-02-04T10:05:56.575Z</time>
      </trkpt>
      <trkpt lat="49.33166" lon="-0.42172">
        <ele>8.7797614566</ele>
        <time>2022-02-04T10:06:03.038Z</time>
      </trkpt>
      <trkpt lat="49.33166" lon="-0.42172">
        <ele>8.90707824613</ele>
        <time>2022-02-04T10:06:09.501Z</time>
      </trkpt>
      <trkpt lat="49.33161" lon="-0.41922">
        <ele>9.0470667031</ele>
        <time>2022-02-04T10:06:15.990Z</time>
      </trkpt>
      <trkpt lat="49.33161" lon="-0.41874">
        <ele>9.21730655195</ele>
        <time>2022-02-04T10:06:22.484Z</time>
      </trkpt>
      <trkpt lat="49.33161" lon="-0.41874">
        <ele>9.39855656013</ele>
        <time>2022-02-04T10:06:28.978Z</time>
      </trkpt>
      <trkpt lat="49.3316" lon="-0.41772">
        <ele>9.64009317732</ele>
        <time>2022-02-04T10:06:35.483Z</time>
      </trkpt>
      <trkpt lat="49.33157" lon="-0.41529">
        <ele>9.83096077184</ele>
        <time>2022-02-04T10:06:42.013Z</time>
      </trkpt>
      <trkpt lat="49.33157" lon="-0.41529">
        <ele>10.00425262624</ele>
        <time>2022-02-04T10:06:48.543Z</time>
      </trkpt>
      <trkpt lat="49.33154" lon="-0.4145">
        <ele>10.15855002844</ele>
        <time>2022-02-04T10:06:55.081Z</time>
      </trkpt>
      <trkpt lat="49.33153" lon="-0.41415">
        <ele>10.26935721532</ele>
        <time>2022-02-04T10:07:01.623Z</time>
      </trkpt>
      <trkpt lat="49.33149" lon="-0.41247">
        <ele>10.45122117933</ele>
        <time>2022-02-04T10:07:08.183Z</time>
      </trkpt>
      <trkpt lat="49.33149" lon="-0.41247">
        <ele>10.51555759736</ele>
        <time>2022-02-04T10:07:14.743Z</time>
      </trkpt>
      <trkpt lat="49.33149" lon="-0.41238">
        <ele>10.53873295996</ele>
        <time>2022-02-04T10:07:21.304Z</time>
      </trkpt>
      <trkpt lat="49.33159" lon="-0.41177">
        <ele>10.49088898131</ele>
        <time>2022-02-04T10:07:27.871Z</time>
      </trkpt>
      <trkpt lat="49.33165" lon="-0.41141">
        <ele>10.40977220761</ele>
        <time>2022-02-04T10:07:34.442Z</time>
      </trkpt>
      <trkpt lat="49.3317" lon="-0.41125">
        <ele>10.35114218839</ele>
        <time>2022-02-04T10:07:41.015Z</time>
      </trkpt>
      <trkpt lat="49.33181" lon="-0.4109">
        <ele>10.27557060828</ele>
        <time>2022-02-04T10:07:47.592Z</time>
      </trkpt>
      <trkpt lat="49.33191" lon="-0.41069">
        <ele>10.19652903401</ele>
        <time>2022-02-04T10:07:54.172Z</time>
      </trkpt>
      <trkpt lat="49.33191" lon="-0.41069">
        <ele>10.11989639516</ele>
        <time>2022-02-04T10:08:00.752Z</time>
      </trkpt>
      <trkpt lat="49.33201" lon="-0.41028">
        <ele>10.05041808789</ele>
        <time>2022-02-04T10:08:07.336Z</time>
      </trkpt>
      <trkpt lat="49.33215" lon="-0.40972">
        <ele>9.93200437653</ele>
        <time>2022-02-04T10:08:13.927Z</time>
      </trkpt>
      <trkpt lat="49.33224" lon="-0.409">
        <ele>9.87479696252</ele>
        <time>2022-02-04T10:08:20.525Z</time>
      </trkpt>
      <trkpt lat="49.33226" lon="-0.40805">
        <ele>9.96166258549</ele>
        <time>2022-02-04T10:08:27.133Z</time>
      </trkpt>
      <trkpt lat="49.33226" lon="-0.40762">
        <ele>9.96290601507</ele>
        <time>2022-02-04T10:08:33.746Z</time>
      </trkpt>
      <trkpt lat="49.33223" lon="-0.40708">
        <ele>9.87438505695</ele>
        <time>2022-02-04T10:08:40.364Z</time>
      </trkpt>
      <trkpt lat="49.33219" lon="-0.40673">
        <ele>9.84135971226</ele>
        <time>2022-02-04T10:08:46.986Z</time>
      </trkpt>
      <trkpt lat="49.33215" lon="-0.40647">
        <ele>9.80438631841</ele>
        <time>2022-02-04T10:08:53.611Z</time>
      </trkpt>
      <trkpt lat="49.33211" lon="-0.40618">
        <ele>9.76486327965</ele>
        <time>2022-02-04T10:09:00.239Z</time>
      </trkpt>
      <trkpt lat="49.33206" lon="-0.40599">
        <ele>9.72532621728</ele>
        <time>2022-02-04T10:09:06.869Z</time>
      </trkpt>
      <trkpt lat="49.33205" lon="-0.40598">
        <ele>9.68950232495</ele>
        <time>2022-02-04T10:09:13.499Z</time>
      </trkpt>
      <trkpt lat="49.33205" lon="-0.40598">
        <ele>9.66229627521</ele>
        <time>2022-02-04T10:09:20.129Z</time>
      </trkpt>
      <trkpt lat="49.33201" lon="-0.40584">
        <ele>9.64968961118</ele>
        <time>2022-02-04T10:09:26.761Z</time>
      </trkpt>
      <trkpt lat="49.33195" lon="-0.40568">
        <ele>9.65853456792</ele>
        <time>2022-02-04T10:09:33.395Z</time>
      </trkpt>
      <trkpt lat="49.33168" lon="-0.40528">
        <ele>9.63541022446</ele>
        <time>2022-02-04T10:09:40.035Z</time>
      </trkpt>
      <trkpt lat="49.33132" lon="-0.40495">
        <ele>9.71212724119</ele>
        <time>2022-02-04T10:09:46.682Z</time>
      </trkpt>
      <trkpt lat="49.33071" lon="-0.40436">
        <ele>9.91058715021</ele>
        <time>2022-02-04T10:09:53.340Z</time>
      </trkpt>
      <trkpt lat="49.33018" lon="-0.40381">
        <ele>10.06075068506</ele>
        <time>2022-02-04T10:10:00.008Z</time>
      </trkpt>
      <trkpt lat="49.32972" lon="-0.40317">
        <ele>10.23751028763</ele>
        <time>2022-02-04T10:10:06.686Z</time>
      </trkpt>
      <trkpt lat="49.32927" lon="-0.40238">
        <ele>10.51235056186</ele>
        <time>2022-02-04T10:10:13.375Z</time>
      </trkpt>
      <trkpt lat="49.32904" lon="-0.40186">
        <ele>10.72499125508</ele>
        <time>2022-02-04T10:10:20.071Z</time>
      </trkpt>
      <trkpt lat="49.32891" lon="-0.40153">
        <ele>10.97865588008</ele>
        <time>2022-02-04T10:10:26.771Z</time>
      </trkpt>
      <trkpt lat="49.32876" lon="-0.4012">
        <ele>11.23160966781</ele>
        <time>2022-02-04T10:10:33.475Z</time>
      </trkpt>
      <trkpt lat="49.32855" lon="-0.40039">
        <ele>11.47100739372</ele>
        <time>2022-02-04T10:10:40.188Z</time>
      </trkpt>
      <trkpt lat="49.32837" lon="-0.39956">
        <ele>11.63029369739</ele>
        <time>2022-02-04T10:10:46.910Z</time>
      </trkpt>
      <trkpt lat="49.32826" lon="-0.3989">
        <ele>11.89320512166</ele>
        <time>2022-02-04T10:10:53.640Z</time>
      </trkpt>
      <trkpt lat="49.32825" lon="-0.39884">
        <ele>12.04277435628</ele>
        <time>2022-02-04T10:11:00.370Z</time>
      </trkpt>
      <trkpt lat="49.32819" lon="-0.39852">
        <ele>12.16810752885</ele>
        <time>2022-02-04T10:11:07.104Z</time>
      </trkpt>
      <trkpt lat="49.32818" lon="-0.3984">
        <ele>12.22528603455</ele>
        <time>2022-02-04T10:11:13.839Z</time>
      </trkpt>
      <trkpt lat="49.32813" lon="-0.39823">
        <ele>12.23845802433</ele>
        <time>2022-02-04T10:11:20.576Z</time>
      </trkpt>
      <trkpt lat="49.32796" lon="-0.397">
        <ele>12.17155067449</ele>
        <time>2022-02-04T10:11:27.326Z</time>
      </trkpt>
      <trkpt lat="49.32791" lon="-0.39659">
        <ele>12.0558768441</ele>
        <time>2022-02-04T10:11:34.080Z</time>
      </trkpt>
      <trkpt lat="49.32792" lon="-0.39631">
        <ele>11.90258437648</ele>
        <time>2022-02-04T10:11:40.837Z</time>
      </trkpt>
      <trkpt lat="49.32786" lon="-0.39631">
        <ele>11.73462638021</ele>
        <time>2022-02-04T10:11:47.595Z</time>
      </trkpt>
      <trkpt lat="49.32781" lon="-0.39623">
        <ele>11.55663721636</ele>
        <time>2022-02-04T10:11:54.355Z</time>
      </trkpt>
      <trkpt lat="49.32781" lon="-0.39615">
        <ele>11.39265488591</ele>
        <time>2022-02-04T10:12:01.115Z</time>
      </trkpt>
      <trkpt lat="49.32786" lon="-0.39607">
        <ele>11.25317837229</ele>
        <time>2022-02-04T10:12:07.877Z</time>
      </trkpt>
      <trkpt lat="49.32785" lon="-0.39512">
        <ele>11.10180688413</ele>
        <time>2022-02-04T10:12:14.648Z</time>
      </trkpt>
      <trkpt lat="49.32785" lon="-0.39472">
        <ele>10.94870454638</ele>
        <time>2022-02-04T10:12:21.424Z</time>
      </trkpt>
      <trkpt lat="49.32785" lon="-0.39472">
        <ele>10.89053623346</ele>
        <time>2022-02-04T10:12:28.200Z</time>
      </trkpt>
      <trkpt lat="49.32788" lon="-0.3931">
        <ele>10.95018902148</ele>
        <time>2022-02-04T10:12:34.993Z</time>
      </trkpt>
      <trkpt lat="49.32785" lon="-0.39265">
        <ele>10.94703375823</ele>
        <time>2022-02-04T10:12:41.790Z</time>
      </trkpt>
      <trkpt lat="49.32784" lon="-0.39243">
        <ele>11.01357023123</ele>
        <time>2022-02-04T10:12:48.590Z</time>
      </trkpt>
      <trkpt lat="49.32777" lon="-0.39175">
        <ele>11.10559334719</ele>
        <time>2022-02-04T10:12:55.397Z</time>
      </trkpt>
      <trkpt lat="49.32774" lon="-0.39159">
        <ele>11.20916881522</ele>
        <time>2022-02-04T10:13:02.206Z</time>
      </trkpt>
      <trkpt lat="49.32774" lon="-0.39159">
        <ele>11.32921380281</ele>
        <time>2022-02-04T10:13:09.015Z</time>
      </trkpt>
      <trkpt lat="49.32756" lon="-0.39054">
        <ele>11.44223594212</ele>
        <time>2022-02-04T10:13:15.835Z</time>
      </trkpt>
      <trkpt lat="49.32745" lon="-0.39011">
        <ele>11.56641119089</ele>
        <time>2022-02-04T10:13:22.660Z</time>
      </trkpt>
      <trkpt lat="49.32712" lon="-0.38881">
        <ele>11.69788631328</ele>
        <time>2022-02-04T10:13:29.499Z</time>
      </trkpt>
      <trkpt lat="49.32703" lon="-0.38826">
        <ele>11.85408899579</ele>
        <time>2022-02-04T10:13:36.344Z</time>
      </trkpt>
      <trkpt lat="49.32703" lon="-0.38826">
        <ele>11.89451289584</ele>
        <time>2022-02-04T10:13:43.189Z</time>
      </trkpt>
      <trkpt lat="49.32699" lon="-0.38764">
        <ele>11.84868156271</ele>
        <time>2022-02-04T10:13:50.041Z</time>
      </trkpt>
      <trkpt lat="49.32699" lon="-0.38764">
        <ele>11.78074058902</ele>
        <time>2022-02-04T10:13:56.893Z</time>
      </trkpt>
      <trkpt lat="49.32703" lon="-0.38721">
        <ele>11.60494471863</ele>
        <time>2022-02-04T10:14:03.749Z</time>
      </trkpt>
      <trkpt lat="49.327" lon="-0.3872">
        <ele>11.43901948724</ele>
        <time>2022-02-04T10:14:10.606Z</time>
      </trkpt>
      <trkpt lat="49.32696" lon="-0.38715">
        <ele>11.23718258375</ele>
        <time>2022-02-04T10:14:17.464Z</time>
      </trkpt>
      <trkpt lat="49.32695" lon="-0.38706">
        <ele>10.99410461036</ele>
        <time>2022-02-04T10:14:24.323Z</time>
      </trkpt>
      <trkpt lat="49.32698" lon="-0.38699">
        <ele>10.73787409948</ele>
        <time>2022-02-04T10:14:31.182Z</time>
      </trkpt>
      <trkpt lat="49.32694" lon="-0.38677">
        <ele>10.4443221388</ele>
        <time>2022-02-04T10:14:38.044Z</time>
      </trkpt>
      <trkpt lat="49.32686" lon="-0.3866">
        <ele>10.19170067985</ele>
        <time>2022-02-04T10:14:44.908Z</time>
      </trkpt>
      <trkpt lat="49.32686" lon="-0.3866">
        <ele>9.93712705469</ele>
        <time>2022-02-04T10:14:51.772Z</time>
      </trkpt>
      <trkpt lat="49.32657" lon="-0.38602">
        <ele>9.68602484814</ele>
        <time>2022-02-04T10:14:58.644Z</time>
      </trkpt>
      <trkpt lat="49.32642" lon="-0.38573">
        <ele>9.45859592956</ele>
        <time>2022-02-04T10:15:05.519Z</time>
      </trkpt>
      <trkpt lat="49.32636" lon="-0.38559">
        <ele>9.25461506427</ele>
        <time>2022-02-04T10:15:12.396Z</time>
      </trkpt>
      <trkpt lat="49.32608" lon="-0.38502">
        <ele>9.02135050359</ele>
        <time>2022-02-04T10:15:19.281Z</time>
      </trkpt>
      <trkpt lat="49.32608" lon="-0.38502">
        <ele>8.89352219165</ele>
        <time>2022-02-04T10:15:26.166Z</time>
      </trkpt>
      <trkpt lat="49.32606" lon="-0.38496">
        <ele>8.82027063525</ele>
        <time>2022-02-04T10:15:33.051Z</time>
      </trkpt>
      <trkpt lat="49.32601" lon="-0.38485">
        <ele>8.81806417166</ele>
        <time>2022-02-04T10:15:39.938Z</time>
      </trkpt>
      <trkpt lat="49.32575" lon="-0.38431">
        <ele>8.83154539014</ele>
        <time>2022-02-04T10:15:46.832Z</time>
      </trkpt>
      <trkpt lat="49.32575" lon="-0.38429">
        <ele>8.94202063504</ele>
        <time>2022-02-04T10:15:53.726Z</time>
      </trkpt>
      <trkpt lat="49.32573" lon="-0.38425">
        <ele>9.11446206739</ele>
        <time>2022-02-04T10:16:00.621Z</time>
      </trkpt>
      <trkpt lat="49.32567" lon="-0.38416">
        <ele>9.34883513387</ele>
        <time>2022-02-04T10:16:07.517Z</time>
      </trkpt>
      <trkpt lat="49.32554" lon="-0.38389">
        <ele>9.65484615031</ele>
        <time>2022-02-04T10:16:14.416Z</time>
      </trkpt>
      <trkpt lat="49.32534" lon="-0.38346">
        <ele>10.01998437559</ele>
        <time>2022-02-04T10:16:21.321Z</time>
      </trkpt>
      <trkpt lat="49.32482" lon="-0.3824">
        <ele>10.39305145208</ele>
        <time>2022-02-04T10:16:28.240Z</time>
      </trkpt>
      <trkpt lat="49.32453" lon="-0.3818">
        <ele>10.6589743519</ele>
        <time>2022-02-04T10:16:35.167Z</time>
      </trkpt>
      <trkpt lat="49.32329" lon="-0.37923">
        <ele>10.7610703734</ele>
        <time>2022-02-04T10:16:42.127Z</time>
      </trkpt>
      <trkpt lat="49.32329" lon="-0.37923">
        <ele>10.84360194852</ele>
        <time>2022-02-04T10:16:49.087Z</time>
      </trkpt>
      <trkpt lat="49.323" lon="-0.37865">
        <ele>10.90236342284</ele>
        <time>2022-02-04T10:16:56.055Z</time>
      </trkpt>
      <trkpt lat="49.32254" lon="-0.3777">
        <ele>10.8032472165</ele>
        <time>2022-02-04T10:17:03.035Z</time>
      </trkpt>
      <trkpt lat="49.32191" lon="-0.37644">
        <ele>10.5292382308</ele>
        <time>2022-02-04T10:17:10.032Z</time>
      </trkpt>
      <trkpt lat="49.32189" lon="-0.37641">
        <ele>10.31016093019</ele>
        <time>2022-02-04T10:17:17.029Z</time>
      </trkpt>
      <trkpt lat="49.32189" lon="-0.37641">
        <ele>10.07027245256</ele>
        <time>2022-02-04T10:17:24.026Z</time>
      </trkpt>
      <trkpt lat="49.32175" lon="-0.37615">
        <ele>9.76889941324</ele>
        <time>2022-02-04T10:17:31.027Z</time>
      </trkpt>
      <trkpt lat="49.32166" lon="-0.37603">
        <ele>9.55016384089</ele>
        <time>2022-02-04T10:17:38.030Z</time>
      </trkpt>
      <trkpt lat="49.32153" lon="-0.37592">
        <ele>9.37367165209</ele>
        <time>2022-02-04T10:17:45.035Z</time>
      </trkpt>
      <trkpt lat="49.32144" lon="-0.37576">
        <ele>9.29240863918</ele>
        <time>2022-02-04T10:17:52.042Z</time>
      </trkpt>
      <trkpt lat="49.32144" lon="-0.37576">
        <ele>9.23258351182</ele>
        <time>2022-02-04T10:17:59.049Z</time>
      </trkpt>
      <trkpt lat="49.32126" lon="-0.37553">
        <ele>9.21661310505</ele>
        <time>2022-02-04T10:18:06.060Z</time>
      </trkpt>
      <trkpt lat="49.32076" lon="-0.37481">
        <ele>9.3076257305</ele>
        <time>2022-02-04T10:18:13.082Z</time>
      </trkpt>
      <trkpt lat="49.32047" lon="-0.37432">
        <ele>9.4334128989</ele>
        <time>2022-02-04T10:18:20.111Z</time>
      </trkpt>
      <trkpt lat="49.32015" lon="-0.37382">
        <ele>9.72551104588</ele>
        <time>2022-02-04T10:18:27.147Z</time>
      </trkpt>
      <trkpt lat="49.32007" lon="-0.37374">
        <ele>10.02685279991</ele>
        <time>2022-02-04T10:18:34.185Z</time>
      </trkpt>
      <trkpt lat="49.32007" lon="-0.37374">
        <ele>10.35467558183</ele>
        <time>2022-02-04T10:18:41.223Z</time>
      </trkpt>
      <trkpt lat="49.31991" lon="-0.37366">
        <ele>10.74001541368</ele>
        <time>2022-02-04T10:18:48.263Z</time>
      </trkpt>
      <trkpt lat="49.31977" lon="-0.3736">
        <ele>11.16163978144</ele>
        <time>2022-02-04T10:18:55.306Z</time>
      </trkpt>
      <trkpt lat="49.3196" lon="-0.37344">
        <ele>11.56314811075</ele>
        <time>2022-02-04T10:19:02.352Z</time>
      </trkpt>
      <trkpt lat="49.31949" lon="-0.37332">
        <ele>11.91894965579</ele>
        <time>2022-02-04T10:19:09.400Z</time>
      </trkpt>
      <trkpt lat="49.31937" lon="-0.3732">
        <ele>12.23873640005</ele>
        <time>2022-02-04T10:19:16.450Z</time>
      </trkpt>
      <trkpt lat="49.31942" lon="-0.37282">
        <ele>12.53262409918</ele>
        <time>2022-02-04T10:19:23.505Z</time>
      </trkpt>
      <trkpt lat="49.31919" lon="-0.37223">
        <ele>12.78807347114</ele>
        <time>2022-02-04T10:19:30.567Z</time>
      </trkpt>
      <trkpt lat="49.31919" lon="-0.37223">
        <ele>12.9665539928</ele>
        <time>2022-02-04T10:19:37.629Z</time>
      </trkpt>
      <trkpt lat="49.31852" lon="-0.37049">
        <ele>13.11321207605</ele>
        <time>2022-02-04T10:19:44.712Z</time>
      </trkpt>
      <trkpt lat="49.3184" lon="-0.37031">
        <ele>13.10055708236</ele>
        <time>2022-02-04T10:19:51.798Z</time>
      </trkpt>
      <trkpt lat="49.3184" lon="-0.37031">
        <ele>13.04512512874</ele>
        <time>2022-02-04T10:19:58.884Z</time>
      </trkpt>
      <trkpt lat="49.31772" lon="-0.36924">
        <ele>12.94616258342</ele>
        <time>2022-02-04T10:20:05.985Z</time>
      </trkpt>
      <trkpt lat="49.31693" lon="-0.36827">
        <ele>12.64622118804</ele>
        <time>2022-02-04T10:20:13.102Z</time>
      </trkpt>
      <trkpt lat="49.3152" lon="-0.36633">
        <ele>12.35544931163</ele>
        <time>2022-02-04T10:20:20.254Z</time>
      </trkpt>
      <trkpt lat="49.3152" lon="-0.36633">
        <ele>11.91992265711</ele>
        <time>2022-02-04T10:20:27.406Z</time>
      </trkpt>
      <trkpt lat="49.31418" lon="-0.36505">
        <ele>11.34721397334</ele>
        <time>2022-02-04T10:20:34.579Z</time>
      </trkpt>
      <trkpt lat="49.3137" lon="-0.36461">
        <ele>10.62854219316</ele>
        <time>2022-02-04T10:20:41.761Z</time>
      </trkpt>
      <trkpt lat="49.3137" lon="-0.36461">
        <ele>10.06146398129</ele>
        <time>2022-02-04T10:20:48.943Z</time>
      </trkpt>
      <trkpt lat="49.31369" lon="-0.3646">
        <ele>9.51131956891</ele>
        <time>2022-02-04T10:20:56.125Z</time>
      </trkpt>
      <trkpt lat="49.31369" lon="-0.3646">
        <ele>9.00501833947</ele>
        <time>2022-02-04T10:21:03.307Z</time>
      </trkpt>
      <trkpt lat="49.31363" lon="-0.36454">
        <ele>8.55023513092</ele>
        <time>2022-02-04T10:21:10.490Z</time>
      </trkpt>
      <trkpt lat="49.31347" lon="-0.36436">
        <ele>8.15938088154</ele>
        <time>2022-02-04T10:21:17.676Z</time>
      </trkpt>
      <trkpt lat="49.31338" lon="-0.36419">
        <ele>7.90130136611</ele>
        <time>2022-02-04T10:21:24.865Z</time>
      </trkpt>
      <trkpt lat="49.31306" lon="-0.36374">
        <ele>7.81993832932</ele>
        <time>2022-02-04T10:21:32.061Z</time>
      </trkpt>
      <trkpt lat="49.313" lon="-0.36364">
        <ele>7.89153955799</ele>
        <time>2022-02-04T10:21:39.258Z</time>
      </trkpt>
      <trkpt lat="49.31298" lon="-0.36358">
        <ele>8.12568704683</ele>
        <time>2022-02-04T10:21:46.456Z</time>
      </trkpt>
      <trkpt lat="49.31295" lon="-0.36351">
        <ele>8.52822880385</ele>
        <time>2022-02-04T10:21:53.655Z</time>
      </trkpt>
      <trkpt lat="49.31296" lon="-0.36334">
        <ele>9.08063124837</ele>
        <time>2022-02-04T10:22:00.855Z</time>
      </trkpt>
      <trkpt lat="49.31294" lon="-0.36318">
        <ele>9.71634653049</ele>
        <time>2022-02-04T10:22:08.057Z</time>
      </trkpt>
      <trkpt lat="49.3128" lon="-0.36213">
        <ele>10.51161097405</ele>
        <time>2022-02-04T10:22:15.270Z</time>
      </trkpt>
      <trkpt lat="49.31275" lon="-0.36178">
        <ele>11.28964651466</ele>
        <time>2022-02-04T10:22:22.487Z</time>
      </trkpt>
      <trkpt lat="49.31265" lon="-0.36144">
        <ele>11.95808027206</ele>
        <time>2022-02-04T10:22:29.708Z</time>
      </trkpt>
      <trkpt lat="49.31252" lon="-0.36109">
        <ele>12.55909064712</ele>
        <time>2022-02-04T10:22:36.933Z</time>
      </trkpt>
      <trkpt lat="49.31252" lon="-0.36108">
        <ele>12.97234897185</ele>
        <time>2022-02-04T10:22:44.158Z</time>
      </trkpt>
      <trkpt lat="49.31252" lon="-0.36107">
        <ele>13.25435850869</ele>
        <time>2022-02-04T10:22:51.383Z</time>
      </trkpt>
      <trkpt lat="49.31252" lon="-0.36107">
        <ele>13.40202770993</ele>
        <time>2022-02-04T10:22:58.608Z</time>
      </trkpt>
      <trkpt lat="49.31248" lon="-0.36095">
        <ele>13.43012044661</ele>
        <time>2022-02-04T10:23:05.835Z</time>
      </trkpt>
      <trkpt lat="49.31313" lon="-0.36034">
        <ele>13.23744190749</ele>
        <time>2022-02-04T10:23:13.074Z</time>
      </trkpt>
      <trkpt lat="49.31338" lon="-0.3601">
        <ele>13.16381255943</ele>
        <time>2022-02-04T10:23:20.318Z</time>
      </trkpt>
      <trkpt lat="49.31381" lon="-0.35972">
        <ele>13.15406211817</ele>
        <time>2022-02-04T10:23:27.570Z</time>
      </trkpt>
      <trkpt lat="49.31425" lon="-0.35931">
        <ele>13.1342836797</ele>
        <time>2022-02-04T10:23:34.830Z</time>
      </trkpt>
      <trkpt lat="49.31425" lon="-0.35931">
        <ele>13.10277514977</ele>
        <time>2022-02-04T10:23:42.090Z</time>
      </trkpt>
      <trkpt lat="49.31477" lon="-0.35883">
        <ele>13.14407023892</ele>
        <time>2022-02-04T10:23:49.360Z</time>
      </trkpt>
      <trkpt lat="49.31498" lon="-0.35863">
        <ele>13.16835321538</ele>
        <time>2022-02-04T10:23:56.634Z</time>
      </trkpt>
      <trkpt lat="49.3153" lon="-0.35834">
        <ele>13.1043630787</ele>
        <time>2022-02-04T10:24:03.914Z</time>
      </trkpt>
      <trkpt lat="49.3153" lon="-0.35834">
        <ele>13.13952526437</ele>
        <time>2022-02-04T10:24:11.194Z</time>
      </trkpt>
      <trkpt lat="49.31597" lon="-0.35771">
        <ele>13.20542012993</ele>
        <time>2022-02-04T10:24:18.486Z</time>
      </trkpt>
      <trkpt lat="49.31662" lon="-0.35706">
        <ele>13.32688364961</ele>
        <time>2022-02-04T10:24:25.791Z</time>
      </trkpt>
      <trkpt lat="49.31662" lon="-0.35702">
        <ele>13.41359944839</ele>
        <time>2022-02-04T10:24:33.096Z</time>
      </trkpt>
      <trkpt lat="49.31662" lon="-0.35702">
        <ele>13.48699831003</ele>
        <time>2022-02-04T10:24:40.401Z</time>
      </trkpt>
      <trkpt lat="49.31664" lon="-0.35698">
        <ele>13.56158099793</ele>
        <time>2022-02-04T10:24:47.707Z</time>
      </trkpt>
      <trkpt lat="49.31667" lon="-0.35699">
        <ele>13.59090665902</ele>
        <time>2022-02-04T10:24:55.013Z</time>
      </trkpt>
      <trkpt lat="49.31667" lon="-0.35699">
        <ele>13.59565913196</ele>
        <time>2022-02-04T10:25:02.319Z</time>
      </trkpt>
      <trkpt lat="49.31668" lon="-0.35706">
        <ele>13.54891329558</ele>
        <time>2022-02-04T10:25:09.626Z</time>
      </trkpt>
      <trkpt lat="49.31668" lon="-0.35706">
        <ele>13.50503938806</ele>
        <time>2022-02-04T10:25:16.933Z</time>
      </trkpt>
      <trkpt lat="49.31667" lon="-0.35707">
        <ele>13.41830992097</ele>
        <time>2022-02-04T10:25:24.240Z</time>
      </trkpt>
      <trkpt lat="49.31668" lon="-0.35721">
        <ele>13.27368395299</ele>
        <time>2022-02-04T10:25:31.549Z</time>
      </trkpt>
      <trkpt lat="49.31668" lon="-0.35721">
        <ele>13.210750416</ele>
        <time>2022-02-04T10:25:38.858Z</time>
      </trkpt>
      <trkpt lat="49.31679" lon="-0.35759">
        <ele>13.15083599389</ele>
        <time>2022-02-04T10:25:46.171Z</time>
      </trkpt>
      <trkpt lat="49.31682" lon="-0.35758">
        <ele>13.09685708139</ele>
        <time>2022-02-04T10:25:53.484Z</time>
      </trkpt>
    </trkseg>
  </trk>
</gpx>